Observation data for Panhandle on 08/12/2019      Previous  Date  Next       Current Mesonet Observations  Soil Data  Daily Summary Page  Observations in Plain Language
KPA1 120500Z 33005KT 22/18 A3006 RMK A01 T02170176  RH  077%=      5-min Rain = 0
KPA1 120501Z 33006KT 22/18 A3006 RMK A01 T02160176  RH  078%=      5-min Rain = 0
KPA1 120502Z 32005KT 22/18 A3006 RMK A01 T02170176  RH  077%=      5-min Rain = 0
KPA1 120503Z 32005KT 22/18 A3006 RMK A01 T02160175  RH  077%=      5-min Rain = 0
KPA1 120504Z 33005KT 22/18 A3006 RMK A01 T02160175  RH  078%=      5-min Rain = 0
KPA1 120505Z 33005KT 22/18 A3006 RMK A01 T02160175  RH  078%=      5-min Rain = 0
KPA1 120506Z 33005KT 22/18 A3005 RMK A01 T02160175  RH  078%=      5-min Rain = 0
KPA1 120507Z 33005KT 22/18 A3005 RMK A01 T02160175  RH  078%=      5-min Rain = 0
KPA1 120508Z 34005KT 22/18 A3005 RMK A01 T02150175  RH  078%=      5-min Rain = 0
KPA1 120509Z 34004KT 22/18 A3005 RMK A01 T02150175  RH  078%=      5-min Rain = 0
KPA1 120510Z 36003KT 21/18 A3005 RMK A01 T02130175  RH  078%=      5-min Rain = 0
KPA1 120511Z 35004KT 21/18 A3005 RMK A01 T02130175  RH  079%=      5-min Rain = 0
KPA1 120512Z 35003KT 21/17 A3005 RMK A01 T02120174  RH  079%=      5-min Rain = 0
KPA1 120513Z 36003KT 21/17 A3005 RMK A01 T02110174  RH  079%=      5-min Rain = 0
KPA1 120514Z 00003KT 21/17 A3005 RMK A01 T02110174  RH  079%=      5-min Rain = 0
KPA1 120515Z 01004KT 21/17 A3005 RMK A01 T02110174  RH  079%=      5-min Rain = 0
KPA1 120516Z 01004KT 21/17 A3004 RMK A01 T02120174  RH  079%=      5-min Rain = 0
KPA1 120517Z 01004KT 21/17 A3004 RMK A01 T02120174  RH  079%=      5-min Rain = 0
KPA1 120518Z 01004KT 21/17 A3004 RMK A01 T02130174  RH  079%=      5-min Rain = 0
KPA1 120519Z 02004KT 21/17 A3004 RMK A01 T02130174  RH  079%=      5-min Rain = 0
KPA1 120520Z 01005KT 21/17 A3004 RMK A01 T02130174  RH  078%=      5-min Rain = 0
KPA1 120521Z 02004KT 21/17 A3004 RMK A01 T02130173  RH  078%=      5-min Rain = 0
KPA1 120522Z 02004KT 21/17 A3004 RMK A01 T02130173  RH  078%=      5-min Rain = 0
KPA1 120523Z 03005KT 21/17 A3004 RMK A01 T02120173  RH  078%=      5-min Rain = 0
KPA1 120524Z 02005KT 21/17 A3004 RMK A01 T02110174  RH  079%=      5-min Rain = 0
KPA1 120525Z 02003KT 21/17 A3004 RMK A01 T02100174  RH  080%=      5-min Rain = 0
KPA1 120526Z 03004KT 21/17 A3004 RMK A01 T02090174  RH  080%=      5-min Rain = 0
KPA1 120527Z 03004KT 21/17 A3004 RMK A01 T02080173  RH  080%=      5-min Rain = 0
KPA1 120528Z 03004KT 21/17 A3004 RMK A01 T02080174  RH  081%=      5-min Rain = 0
KPA1 120529Z 04004KT 21/17 A3004 RMK A01 T02080174  RH  081%=      5-min Rain = 0
KPA1 120530Z 03004KT 21/17 A3004 RMK A01 T02070174  RH  081%=      5-min Rain = 0
KPA1 120531Z 03004KT 21/17 A3004 RMK A01 T02070174  RH  081%=      5-min Rain = 0
KPA1 120532Z 03003KT 21/17 A3004 RMK A01 T02060174  RH  081%=      5-min Rain = 0
KPA1 120533Z 02002KT 21/17 A3004 RMK A01 T02060174  RH  082%=      5-min Rain = 0
KPA1 120534Z 02002KT 21/17 A3004 RMK A01 T02060173  RH  082%=      5-min Rain = 0
KPA1 120535Z 01002KT 21/17 A3004 RMK A01 T02060173  RH  082%=      5-min Rain = 0
KPA1 120536Z 35002KT 21/17 A3004 RMK A01 T02060174  RH  082%=      5-min Rain = 0
KPA1 120537Z 35001KT 21/17 A3004 RMK A01 T02060173  RH  082%=      5-min Rain = 0
KPA1 120538Z 35002KT 21/17 A3004 RMK A01 T02060173  RH  082%=      5-min Rain = 0
KPA1 120539Z 36002KT 21/17 A3004 RMK A01 T02070174  RH  081%=      5-min Rain = 0
KPA1 120540Z 35002KT 21/17 A3004 RMK A01 T02070174  RH  081%=      5-min Rain = 0
KPA1 120541Z 34002KT 21/17 A3004 RMK A01 T02070174  RH  081%=      5-min Rain = 0
KPA1 120542Z 34002KT 21/17 A3004 RMK A01 T02070173  RH  081%=      5-min Rain = 0
KPA1 120543Z 34002KT 21/17 A3004 RMK A01 T02070173  RH  081%=      5-min Rain = 0
KPA1 120544Z 33002KT 21/17 A3004 RMK A01 T02070172  RH  080%=      5-min Rain = 0
KPA1 120545Z 32002KT 21/17 A3004 RMK A01 T02060171  RH  080%=      5-min Rain = 0
KPA1 120546Z 32001KT 21/17 A3003 RMK A01 T02060171  RH  080%=      5-min Rain = 0
KPA1 120547Z 32000KT 21/17 A3003 RMK A01 T02050171  RH  081%=      5-min Rain = 0
KPA1 120548Z 00000KT 20/17 A3003 RMK A01 T02030171  RH  082%=      5-min Rain = 0
KPA1 120549Z 00000KT 20/17 A3003 RMK A01 T02010171  RH  083%=      5-min Rain = 0
KPA1 120550Z 00000KT 20/17 A3003 RMK A01 T01990171  RH  084%=      5-min Rain = 0
KPA1 120551Z 00000KT 20/17 A3003 RMK A01 T01980172  RH  085%=      5-min Rain = 0
KPA1 120552Z 35000KT 20/17 A3003 RMK A01 T01980172  RH  085%=      5-min Rain = 0
KPA1 120553Z 35001KT 20/17 A3003 RMK A01 T01970172  RH  085%=      5-min Rain = 0
KPA1 120554Z 35001KT 20/17 A3003 RMK A01 T01970173  RH  086%=      5-min Rain = 0
KPA1 120555Z 35001KT 20/17 A3003 RMK A01 T01970173  RH  086%=      5-min Rain = 0
KPA1 120556Z 35001KT 20/17 A3003 RMK A01 T01970173  RH  086%=      5-min Rain = 0
KPA1 120557Z 35001KT 20/17 A3003 RMK A01 T01970173  RH  086%=      5-min Rain = 0
KPA1 120558Z 35001KT 20/17 A3002 RMK A01 T01970173  RH  086%=      5-min Rain = 0
KPA1 120559Z 00002KT 20/17 A3002 RMK A01 T01970173  RH  086%=      5-min Rain = 0
KPA1 120600Z 01001KT 20/17 A3002 RMK A01 T01970173  RH  086%=      5-min Rain = 0
KPA1 120601Z 01001KT 20/17 A3002 RMK A01 T01960171  RH  086%=      5-min Rain = 0
KPA1 120602Z 01001KT 20/17 A3002 RMK A01 T01950171  RH  086%=      5-min Rain = 0
KPA1 120603Z 01000KT 19/17 A3002 RMK A01 T01940171  RH  086%=      5-min Rain = 0
KPA1 120604Z 00000KT 19/18 A3002 RMK A01 T01940175  RH  089%=      5-min Rain = 0
KPA1 120605Z 00000KT 19/18 A3002 RMK A01 T01940176  RH  089%=      5-min Rain = 0
KPA1 120606Z 00000KT 19/18 A3002 RMK A01 T01940175  RH  089%=      5-min Rain = 0
KPA1 120607Z 00000KT 19/18 A3002 RMK A01 T01940175  RH  089%=      5-min Rain = 0
KPA1 120608Z 00000KT 19/17 A3002 RMK A01 T01930173  RH  088%=      5-min Rain = 0
KPA1 120609Z 00000KT 19/17 A3002 RMK A01 T01920172  RH  088%=      5-min Rain = 0
KPA1 120610Z 00000KT 19/17 A3002 RMK A01 T01920173  RH  088%=      5-min Rain = 0
KPA1 120611Z 00000KT 19/17 A3002 RMK A01 T01930174  RH  089%=      5-min Rain = 0
KPA1 120612Z 00000KT 19/17 A3002 RMK A01 T01930174  RH  089%=      5-min Rain = 0
KPA1 120613Z 00000KT 19/17 A3002 RMK A01 T01930174  RH  089%=      5-min Rain = 0
KPA1 120614Z 00000KT 19/17 A3002 RMK A01 T01930173  RH  088%=      5-min Rain = 0
KPA1 120615Z 02000KT 19/17 A3002 RMK A01 T01930173  RH  088%=      5-min Rain = 0
KPA1 120616Z 03001KT 19/17 A3002 RMK A01 T01930173  RH  088%=      5-min Rain = 0
KPA1 120617Z 04002KT 19/17 A3002 RMK A01 T01930173  RH  088%=      5-min Rain = 0
KPA1 120618Z 05002KT 19/17 A3002 RMK A01 T01930173  RH  088%=      5-min Rain = 0
KPA1 120619Z 06002KT 19/17 A3002 RMK A01 T01930173  RH  088%=      5-min Rain = 0
KPA1 120620Z 08002KT 19/17 A3002 RMK A01 T01930173  RH  088%=      5-min Rain = 0
KPA1 120621Z 09002KT 19/17 A3002 RMK A01 T01940173  RH  087%=      5-min Rain = 0
KPA1 120622Z 09002KT 19/17 A3002 RMK A01 T01940173  RH  087%=      5-min Rain = 0
KPA1 120623Z 09002KT 20/17 A3002 RMK A01 T01950173  RH  087%=      5-min Rain = 0
KPA1 120624Z 09002KT 19/17 A3002 RMK A01 T01940172  RH  087%=      5-min Rain = 0
KPA1 120625Z 09001KT 19/17 A3002 RMK A01 T01930171  RH  087%=      5-min Rain = 0
KPA1 120626Z 09001KT 19/17 A3002 RMK A01 T01920170  RH  087%=      5-min Rain = 0
KPA1 120627Z 09001KT 19/17 A3002 RMK A01 T01910170  RH  087%=      5-min Rain = 0
KPA1 120628Z 10002KT 19/17 A3002 RMK A01 T01910170  RH  088%=      5-min Rain = 0
KPA1 120629Z 12003KT 19/17 A3002 RMK A01 T01900169  RH  088%=      5-min Rain = 0
KPA1 120630Z 12003KT 19/17 A3002 RMK A01 T01890169  RH  088%=      5-min Rain = 0
KPA1 120631Z 12003KT 19/17 A3001 RMK A01 T01870168  RH  088%=      5-min Rain = 0
KPA1 120632Z 11003KT 19/17 A3001 RMK A01 T01860168  RH  089%=      5-min Rain = 0
KPA1 120633Z 11004KT 19/17 A3001 RMK A01 T01850168  RH  089%=      5-min Rain = 0
KPA1 120634Z 11004KT 19/17 A3001 RMK A01 T01850167  RH  090%=      5-min Rain = 0
KPA1 120635Z 11004KT 18/17 A3001 RMK A01 T01840168  RH  090%=      5-min Rain = 0
KPA1 120636Z 10004KT 18/17 A3001 RMK A01 T01840168  RH  091%=      5-min Rain = 0
KPA1 120637Z 09004KT 18/17 A3001 RMK A01 T01840170  RH  091%=      5-min Rain = 0
KPA1 120638Z 09005KT 18/17 A3001 RMK A01 T01840170  RH  091%=      5-min Rain = 0
KPA1 120639Z 09005KT 19/17 A3001 RMK A01 T01850170  RH  091%=      5-min Rain = 0
KPA1 120640Z 10005KT 19/17 A3001 RMK A01 T01850172  RH  092%=      5-min Rain = 0
KPA1 120641Z 10004KT 19/17 A3001 RMK A01 T01860173  RH  092%=      5-min Rain = 0
KPA1 120642Z 11004KT 19/17 A3001 RMK A01 T01870172  RH  091%=      5-min Rain = 0
KPA1 120643Z 11004KT 19/17 A3001 RMK A01 T01870172  RH  091%=      5-min Rain = 0
KPA1 120644Z 11004KT 19/17 A3001 RMK A01 T01870172  RH  091%=      5-min Rain = 0
KPA1 120645Z 11004KT 19/17 A3001 RMK A01 T01880172  RH  091%=      5-min Rain = 0
KPA1 120646Z 11005KT 19/17 A3001 RMK A01 T01880172  RH  090%=      5-min Rain = 0
KPA1 120647Z 11005KT 19/17 A3001 RMK A01 T01890173  RH  090%=      5-min Rain = 0
KPA1 120648Z 11005KT 19/17 A3001 RMK A01 T01890173  RH  090%=      5-min Rain = 0
KPA1 120649Z 11005KT 19/17 A3001 RMK A01 T01900174  RH  090%=      5-min Rain = 0
KPA1 120650Z 11005KT 19/17 A3001 RMK A01 T01910174  RH  090%=      5-min Rain = 0
KPA1 120651Z 11004KT 19/18 A3001 RMK A01 T01930175  RH  089%=      5-min Rain = 0
KPA1 120652Z 12004KT 19/17 A3001 RMK A01 T01940174  RH  089%=      5-min Rain = 0
KPA1 120653Z 13003KT 19/17 A3001 RMK A01 T01940174  RH  088%=      5-min Rain = 0
KPA1 120654Z 12003KT 19/17 A3001 RMK A01 T01940174  RH  088%=      5-min Rain = 0
KPA1 120655Z 12002KT 19/17 A3001 RMK A01 T01940173  RH  088%=      5-min Rain = 0
KPA1 120656Z 12002KT 19/17 A3001 RMK A01 T01940173  RH  088%=      5-min Rain = 0
KPA1 120657Z 12003KT 19/17 A3001 RMK A01 T01940173  RH  088%=      5-min Rain = 0
KPA1 120658Z 12002KT 19/17 A3001 RMK A01 T01940174  RH  088%=      5-min Rain = 0
KPA1 120659Z 14002KT 19/17 A3001 RMK A01 T01940174  RH  088%=      5-min Rain = 0
KPA1 120700Z 16002KT 19/17 A3001 RMK A01 T01940174  RH  088%=      5-min Rain = 0
KPA1 120701Z 17002KT 19/17 A3001 RMK A01 T01940174  RH  088%=      5-min Rain = 0
KPA1 120702Z 16002KT 19/18 A3001 RMK A01 T01940175  RH  088%=      5-min Rain = 0
KPA1 120703Z 16002KT 19/17 A3002 RMK A01 T01940174  RH  088%=      5-min Rain = 0
KPA1 120704Z 16002KT 19/17 A3002 RMK A01 T01930171  RH  087%=      5-min Rain = 0
KPA1 120705Z 21001KT 19/17 A3002 RMK A01 T01890168  RH  087%=      5-min Rain = 0
KPA1 120706Z 23001KT 19/17 A3002 RMK A01 T01860167  RH  089%=      5-min Rain = 0
KPA1 120707Z 22000KT 19/17 A3002 RMK A01 T01850169  RH  090%=      5-min Rain = 0
KPA1 120708Z 17001KT 19/17 A3002 RMK A01 T01850173  RH  092%=      5-min Rain = 0
KPA1 120709Z 18002KT 19/17 A3002 RMK A01 T01850173  RH  092%=      5-min Rain = 0
KPA1 120710Z 19002KT 19/17 A3002 RMK A01 T01850173  RH  092%=      5-min Rain = 0
KPA1 120711Z 20002KT 19/17 A3002 RMK A01 T01850172  RH  092%=      5-min Rain = 0
KPA1 120712Z 20001KT 18/17 A3002 RMK A01 T01840172  RH  093%=      5-min Rain = 0
KPA1 120713Z 20001KT 18/17 A3002 RMK A01 T01840173  RH  093%=      5-min Rain = 0
KPA1 120714Z 16002KT 18/17 A3002 RMK A01 T01840173  RH  093%=      5-min Rain = 0
KPA1 120715Z 16002KT 18/17 A3002 RMK A01 T01840172  RH  093%=      5-min Rain = 0
KPA1 120716Z 19003KT 18/17 A3002 RMK A01 T01840172  RH  093%=      5-min Rain = 0
KPA1 120717Z 17002KT 18/17 A3002 RMK A01 T01830171  RH  093%=      5-min Rain = 0
KPA1 120718Z 17003KT 18/17 A3002 RMK A01 T01830171  RH  093%=      5-min Rain = 0
KPA1 120719Z 18003KT 18/17 A3002 RMK A01 T01830171  RH  093%=      5-min Rain = 0
KPA1 120720Z 19003KT 18/17 A3002 RMK A01 T01830171  RH  092%=      5-min Rain = 0
KPA1 120721Z 18003KT 18/17 A3002 RMK A01 T01830171  RH  093%=      5-min Rain = 0
KPA1 120722Z 18004KT 18/17 A3002 RMK A01 T01830171  RH  093%=      5-min Rain = 0
KPA1 120723Z 18004KT 18/17 A3002 RMK A01 T01840171  RH  092%=      5-min Rain = 0
KPA1 120724Z 19002KT 18/17 A3002 RMK A01 T01840171  RH  092%=      5-min Rain = 0
KPA1 120725Z 17003KT 19/17 A3002 RMK A01 T01850172  RH  092%=      5-min Rain = 0
KPA1 120726Z 16003KT 19/17 A3002 RMK A01 T01860171  RH  091%=      5-min Rain = 0
KPA1 120727Z 20002KT 19/17 A3002 RMK A01 T01860171  RH  091%=      5-min Rain = 0
KPA1 120728Z 25003KT 19/17 A3002 RMK A01 T01860172  RH  091%=      5-min Rain = 0
KPA1 120729Z 24003KT 19/17 A3002 RMK A01 T01870174  RH  092%=      5-min Rain = 0
KPA1 120730Z 20003KT 19/17 A3003 RMK A01 T01890174  RH  091%=      5-min Rain = 0
KPA1 120731Z 18003KT 19/17 A3003 RMK A01 T01900174  RH  091%=      5-min Rain = 0
KPA1 120732Z 17002KT 19/17 A3003 RMK A01 T01900174  RH  090%=      5-min Rain = 0
KPA1 120733Z 14001KT 19/17 A3002 RMK A01 T01900173  RH  090%=      5-min Rain = 0
KPA1 120734Z 18002KT 19/17 A3003 RMK A01 T01900173  RH  090%=      5-min Rain = 0
KPA1 120735Z 19003KT 19/17 A3003 RMK A01 T01910173  RH  090%=      5-min Rain = 0
KPA1 120736Z 17004KT 19/17 A3003 RMK A01 T01900173  RH  090%=      5-min Rain = 0
KPA1 120737Z 18001KT 19/17 A3003 RMK A01 T01910173  RH  089%=      5-min Rain = 0
KPA1 120738Z 27004KT 19/17 A3003 RMK A01 T01910174  RH  090%=      5-min Rain = 0
KPA1 120739Z 25003KT 19/17 A3003 RMK A01 T01910174  RH  090%=      5-min Rain = 0
KPA1 120740Z 14002KT 19/17 A3002 RMK A01 T01920172  RH  088%=      5-min Rain = 0
KPA1 120741Z 17003KT 19/17 A3002 RMK A01 T01930171  RH  087%=      5-min Rain = 0
KPA1 120742Z 19003KT 19/17 A3003 RMK A01 T01940171  RH  086%=      5-min Rain = 0
KPA1 120743Z 20003KT 20/17 A3003 RMK A01 T01950171  RH  086%=      5-min Rain = 0
KPA1 120744Z 22003KT 20/17 A3003 RMK A01 T01950171  RH  086%=      5-min Rain = 0
KPA1 120745Z 24003KT 20/17 A3003 RMK A01 T01950173  RH  087%=      5-min Rain = 0
KPA1 120746Z 24004KT 20/17 A3003 RMK A01 T01950173  RH  087%=      5-min Rain = 0
KPA1 120747Z 22004KT 20/17 A3003 RMK A01 T01950173  RH  087%=      5-min Rain = 0
KPA1 120748Z 23005KT 20/17 A3003 RMK A01 T01970174  RH  086%=      5-min Rain = 0
KPA1 120749Z 25007KT 20/17 A3003 RMK A01 T01980174  RH  086%=      5-min Rain = 0
KPA1 120750Z 27004KT 20/17 A3003 RMK A01 T01980173  RH  086%=      5-min Rain = 0
KPA1 120751Z 27003KT 20/17 A3002 RMK A01 T01980174  RH  086%=      5-min Rain = 0
KPA1 120752Z 27001KT 20/17 A3002 RMK A01 T01990174  RH  086%=      5-min Rain = 0
KPA1 120753Z 22003KT 20/17 A3003 RMK A01 T01990174  RH  086%=      5-min Rain = 0
KPA1 120754Z 22004KT 20/17 A3003 RMK A01 T01990174  RH  086%=      5-min Rain = 0
KPA1 120755Z 23005KT 20/17 A3003 RMK A01 T01990174  RH  086%=      5-min Rain = 0
KPA1 120756Z 27004KT 20/17 A3003 RMK A01 T01970173  RH  086%=      5-min Rain = 0
KPA1 120757Z 29004KT 20/17 A3003 RMK A01 T01970173  RH  086%=      5-min Rain = 0
KPA1 120758Z 31004KT 20/17 A3002 RMK A01 T01970173  RH  086%=      5-min Rain = 0
KPA1 120759Z 30005KT 20/17 A3003 RMK A01 T01970174  RH  086%=      5-min Rain = 0
KPA1 120800Z 28006KT 20/17 A3003 RMK A01 T01980174  RH  086%=      5-min Rain = 0
KPA1 120801Z 27005KT 20/17 A3003 RMK A01 T01980174  RH  086%=      5-min Rain = 0
KPA1 120802Z 28005KT 20/17 A3003 RMK A01 T01990174  RH  085%=      5-min Rain = 0
KPA1 120803Z 28003KT 20/17 A3002 RMK A01 T01990173  RH  085%=      5-min Rain = 0
KPA1 120804Z 27000KT 20/17 A3002 RMK A01 T01990173  RH  085%=      5-min Rain = 0
KPA1 120805Z 14003KT 20/17 A3002 RMK A01 T01990173  RH  085%=      5-min Rain = 0
KPA1 120806Z 15002KT 20/17 A3002 RMK A01 T01980173  RH  085%=      5-min Rain = 0
KPA1 120807Z 15002KT 20/17 A3002 RMK A01 T01970172  RH  086%=      5-min Rain = 0
KPA1 120808Z 15000KT 20/17 A3002 RMK A01 T01960172  RH  086%=      5-min Rain = 0
KPA1 120809Z 35001KT 20/17 A3001 RMK A01 T01950172  RH  087%=      5-min Rain = 0
KPA1 120810Z 35001KT 20/17 A3001 RMK A01 T01950172  RH  087%=      5-min Rain = 0
KPA1 120811Z 32001KT 20/17 A3001 RMK A01 T01960172  RH  086%=      5-min Rain = 0
KPA1 120812Z 31002KT 20/17 A3002 RMK A01 T01950171  RH  086%=      5-min Rain = 0
KPA1 120813Z 28002KT 20/17 A3002 RMK A01 T01950171  RH  086%=      5-min Rain = 0
KPA1 120814Z 27003KT 19/17 A3002 RMK A01 T01930170  RH  087%=      5-min Rain = 0
KPA1 120815Z 26003KT 19/17 A3002 RMK A01 T01930171  RH  087%=      5-min Rain = 0
KPA1 120816Z 26003KT 19/17 A3002 RMK A01 T01930172  RH  087%=      5-min Rain = 0
KPA1 120817Z 26004KT 19/17 A3002 RMK A01 T01940171  RH  087%=      5-min Rain = 0
KPA1 120818Z 26006KT 19/17 A3002 RMK A01 T01930170  RH  087%=      5-min Rain = 0
KPA1 120819Z 26006KT 19/17 A3002 RMK A01 T01910170  RH  088%=      5-min Rain = 0
KPA1 120820Z 27006KT 19/17 A3002 RMK A01 T01900170  RH  088%=      5-min Rain = 0
KPA1 120821Z 28007KT 19/17 A3002 RMK A01 T01900171  RH  089%=      5-min Rain = 0
KPA1 120822Z 28006KT 19/17 A3002 RMK A01 T01900173  RH  090%=      5-min Rain = 0
KPA1 120823Z 28006KT 19/17 A3002 RMK A01 T01920174  RH  090%=      5-min Rain = 0
KPA1 120824Z 26003KT 19/17 A3002 RMK A01 T01930174  RH  089%=      5-min Rain = 0
KPA1 120825Z 15004KT 19/17 A3002 RMK A01 T01920170  RH  087%=      5-min Rain = 0
KPA1 120826Z 20001KT 19/17 A3002 RMK A01 T01890169  RH  088%=      5-min Rain = 0
KPA1 120827Z 22001KT 19/17 A3002 RMK A01 T01880170  RH  089%=      5-min Rain = 0
KPA1 120828Z 19002KT 19/17 A3002 RMK A01 T01880170  RH  090%=      5-min Rain = 0
KPA1 120829Z 19002KT 19/17 A3002 RMK A01 T01870170  RH  090%=      5-min Rain = 0
KPA1 120830Z 23002KT 19/17 A3002 RMK A01 T01870170  RH  090%=      5-min Rain = 0
KPA1 120831Z 25002KT 19/17 A3002 RMK A01 T01870171  RH  090%=      5-min Rain = 0
KPA1 120832Z 26003KT 19/17 A3002 RMK A01 T01870171  RH  090%=      5-min Rain = 0
KPA1 120833Z 26003KT 19/17 A3002 RMK A01 T01880171  RH  090%=      5-min Rain = 0
KPA1 120834Z 26004KT 19/17 A3002 RMK A01 T01880172  RH  090%=      5-min Rain = 0
KPA1 120835Z 27004KT 19/17 A3002 RMK A01 T01890172  RH  090%=      5-min Rain = 0
KPA1 120836Z 28004KT 19/17 A3002 RMK A01 T01890171  RH  090%=      5-min Rain = 0
KPA1 120837Z 29006KT 19/17 A3002 RMK A01 T01880171  RH  090%=      5-min Rain = 0
KPA1 120838Z 28004KT 19/17 A3002 RMK A01 T01880171  RH  090%=      5-min Rain = 0
KPA1 120839Z 29004KT 19/17 A3002 RMK A01 T01880172  RH  090%=      5-min Rain = 0
KPA1 120840Z 29004KT 19/17 A3002 RMK A01 T01890172  RH  090%=      5-min Rain = 0
KPA1 120841Z 29002KT 19/17 A3002 RMK A01 T01900172  RH  089%=      5-min Rain = 0
KPA1 120842Z 22001KT 19/17 A3002 RMK A01 T01900171  RH  089%=      5-min Rain = 0
KPA1 120843Z 21001KT 19/17 A3001 RMK A01 T01890171  RH  089%=      5-min Rain = 0
KPA1 120844Z 22001KT 19/17 A3001 RMK A01 T01880171  RH  090%=      5-min Rain = 0
KPA1 120845Z 24000KT 19/17 A3001 RMK A01 T01880171  RH  090%=      5-min Rain = 0
KPA1 120846Z 24000KT 19/17 A3001 RMK A01 T01880171  RH  090%=      5-min Rain = 0
KPA1 120847Z 00000KT 19/17 A3001 RMK A01 T01880170  RH  089%=      5-min Rain = 0
KPA1 120848Z 00000KT 19/17 A3001 RMK A01 T01870170  RH  089%=      5-min Rain = 0
KPA1 120849Z 23001KT 19/17 A3001 RMK A01 T01870169  RH  089%=      5-min Rain = 0
KPA1 120850Z 25002KT 19/17 A3001 RMK A01 T01860169  RH  090%=      5-min Rain = 0
KPA1 120851Z 28003KT 19/17 A3001 RMK A01 T01850169  RH  090%=      5-min Rain = 0
KPA1 120852Z 28003KT 19/17 A3001 RMK A01 T01850170  RH  091%=      5-min Rain = 0
KPA1 120853Z 28003KT 19/17 A3001 RMK A01 T01850170  RH  091%=      5-min Rain = 0
KPA1 120854Z 27001KT 19/17 A3001 RMK A01 T01850169  RH  091%=      5-min Rain = 0
KPA1 120855Z 18002KT 18/17 A3001 RMK A01 T01840168  RH  090%=      5-min Rain = 0
KPA1 120856Z 21002KT 18/17 A3001 RMK A01 T01820166  RH  090%=      5-min Rain = 0
KPA1 120857Z 27002KT 18/17 A3001 RMK A01 T01820168  RH  091%=      5-min Rain = 0
KPA1 120858Z 27002KT 18/17 A3001 RMK A01 T01820168  RH  092%=      5-min Rain = 0
KPA1 120859Z 25003KT 18/17 A3001 RMK A01 T01820169  RH  092%=      5-min Rain = 0
KPA1 120900Z 24003KT 18/17 A3001 RMK A01 T01820169  RH  092%=      5-min Rain = 0
KPA1 120901Z 24002KT 18/17 A3001 RMK A01 T01830169  RH  092%=      5-min Rain = 0
KPA1 120902Z 25001KT 18/17 A3001 RMK A01 T01830169  RH  091%=      5-min Rain = 0
KPA1 120903Z 26001KT 18/17 A3001 RMK A01 T01830167  RH  090%=      5-min Rain = 0
KPA1 120904Z 28002KT 18/17 A3001 RMK A01 T01810166  RH  091%=      5-min Rain = 0
KPA1 120905Z 28003KT 18/17 A3001 RMK A01 T01820168  RH  092%=      5-min Rain = 0
KPA1 120906Z 28003KT 18/17 A3001 RMK A01 T01830170  RH  092%=      5-min Rain = 0
KPA1 120907Z 28003KT 18/17 A3001 RMK A01 T01840171  RH  092%=      5-min Rain = 0
KPA1 120908Z 28002KT 19/17 A3001 RMK A01 T01850171  RH  091%=      5-min Rain = 0
KPA1 120909Z 24003KT 19/17 A3001 RMK A01 T01860170  RH  091%=      5-min Rain = 0
KPA1 120910Z 25003KT 19/17 A3001 RMK A01 T01850169  RH  090%=      5-min Rain = 0
KPA1 120911Z 26002KT 18/17 A3001 RMK A01 T01840168  RH  090%=      5-min Rain = 0
KPA1 120912Z 27002KT 19/17 A3001 RMK A01 T01850169  RH  090%=      5-min Rain = 0
KPA1 120913Z 28003KT 18/17 A3001 RMK A01 T01840167  RH  090%=      5-min Rain = 0
KPA1 120914Z 28002KT 18/17 A3001 RMK A01 T01830166  RH  090%=      5-min Rain = 0
KPA1 120915Z 26001KT 18/17 A30 RMK A01 T01830167  RH  090%=      5-min Rain = 0
KPA1 120916Z 24002KT 18/17 A30 RMK A01 T01820165  RH  090%=      5-min Rain = 0
KPA1 120917Z 26001KT 18/16 A30 RMK A01 T01800164  RH  090%=      5-min Rain = 0
KPA1 120918Z 26000KT 18/17 A30 RMK A01 T01800166  RH  091%=      5-min Rain = 0
KPA1 120919Z 00000KT 18/17 A30 RMK A01 T01800165  RH  091%=      5-min Rain = 0
KPA1 120920Z 00000KT 18/17 A30 RMK A01 T01790165  RH  092%=      5-min Rain = 0
KPA1 120921Z 00000KT 18/17 A30 RMK A01 T01790166  RH  092%=      5-min Rain = 0
KPA1 120922Z 21000KT 18/17 A30 RMK A01 T01790166  RH  092%=      5-min Rain = 0
KPA1 120923Z 21001KT 18/17 A30 RMK A01 T01790166  RH  092%=      5-min Rain = 0
KPA1 120924Z 21001KT 18/17 A30 RMK A01 T01790167  RH  093%=      5-min Rain = 0
KPA1 120925Z 21001KT 18/17 A30 RMK A01 T01800168  RH  093%=      5-min Rain = 0
KPA1 120926Z 21000KT 18/17 A30 RMK A01 T01800168  RH  093%=      5-min Rain = 0
KPA1 120927Z 21000KT 18/17 A30 RMK A01 T01800167  RH  092%=      5-min Rain = 0
KPA1 120928Z 21001KT 18/17 A30 RMK A01 T01800167  RH  092%=      5-min Rain = 0
KPA1 120929Z 21000KT 18/17 A30 RMK A01 T01800167  RH  092%=      5-min Rain = 0
KPA1 120930Z 00000KT 18/17 A30 RMK A01 T01800168  RH  093%=      5-min Rain = 0
KPA1 120931Z 21001KT 18/17 A30 RMK A01 T01800168  RH  092%=      5-min Rain = 0
KPA1 120932Z 21002KT 18/17 A30 RMK A01 T01800167  RH  092%=      5-min Rain = 0
KPA1 120933Z 21001KT 18/17 A30 RMK A01 T01810168  RH  092%=      5-min Rain = 0
KPA1 120934Z 21000KT 18/17 A30 RMK A01 T01800167  RH  092%=      5-min Rain = 0
KPA1 120935Z 17001KT 18/17 A30 RMK A01 T01800166  RH  092%=      5-min Rain = 0
KPA1 120936Z 17001KT 18/17 A30 RMK A01 T01800166  RH  092%=      5-min Rain = 0
KPA1 120937Z 17001KT 18/17 A30 RMK A01 T01790166  RH  092%=      5-min Rain = 0
KPA1 120938Z 17001KT 18/17 A2999 RMK A01 T01800166  RH  092%=      5-min Rain = 0
KPA1 120939Z 17001KT 18/17 A2999 RMK A01 T01800166  RH  092%=      5-min Rain = 0
KPA1 120940Z 17001KT 18/17 A2999 RMK A01 T01800166  RH  091%=      5-min Rain = 0
KPA1 120941Z 19001KT 18/17 A30 RMK A01 T01800166  RH  091%=      5-min Rain = 0
KPA1 120942Z 19001KT 18/17 A2999 RMK A01 T01800166  RH  091%=      5-min Rain = 0
KPA1 120943Z 19002KT 18/17 A2999 RMK A01 T01800166  RH  091%=      5-min Rain = 0
KPA1 120944Z 19001KT 18/17 A2999 RMK A01 T01800166  RH  091%=      5-min Rain = 0
KPA1 120945Z 21002KT 18/17 A30 RMK A01 T01800166  RH  091%=      5-min Rain = 0
KPA1 120946Z 21002KT 18/16 A30 RMK A01 T01790164  RH  091%=      5-min Rain = 0
KPA1 120947Z 21003KT 18/16 A30 RMK A01 T01780164  RH  091%=      5-min Rain = 0
KPA1 120948Z 21002KT 18/16 A30 RMK A01 T01770163  RH  091%=      5-min Rain = 0
KPA1 120949Z 21003KT 18/16 A30 RMK A01 T01760162  RH  092%=      5-min Rain = 0
KPA1 120950Z 21002KT 18/16 A30 RMK A01 T01750162  RH  092%=      5-min Rain = 0
KPA1 120951Z 21003KT 17/16 A30 RMK A01 T01740161  RH  092%=      5-min Rain = 0
KPA1 120952Z 21003KT 17/16 A30 RMK A01 T01730161  RH  093%=      5-min Rain = 0
KPA1 120953Z 21002KT 17/16 A30 RMK A01 T01720161  RH  093%=      5-min Rain = 0
KPA1 120954Z 25003KT 17/16 A30 RMK A01 T01720162  RH  094%=      5-min Rain = 0
KPA1 120955Z 25003KT 17/16 A30 RMK A01 T01720164  RH  095%=      5-min Rain = 0
KPA1 120956Z 23003KT 17/17 A30 RMK A01 T01730166  RH  096%=      5-min Rain = 0
KPA1 120957Z 23004KT 17/17 A30 RMK A01 T01730167  RH  096%=      5-min Rain = 0
KPA1 120958Z 23004KT 17/17 A30 RMK A01 T01730167  RH  096%=      5-min Rain = 0
KPA1 120959Z 23004KT 17/17 A30 RMK A01 T01730166  RH  096%=      5-min Rain = 0
KPA1 121000Z 23004KT 17/17 A30 RMK A01 T01720166  RH  096%=      5-min Rain = 0
KPA1 121001Z 23004KT 17/17 A30 RMK A01 T01720166  RH  096%=      5-min Rain = 0
KPA1 121002Z 23004KT 17/17 A30 RMK A01 T01720165  RH  096%=      5-min Rain = 0
KPA1 121003Z 24005KT 17/17 A30 RMK A01 T01730165  RH  096%=      5-min Rain = 0
KPA1 121004Z 24005KT 17/17 A30 RMK A01 T01730166  RH  096%=      5-min Rain = 0
KPA1 121005Z 24006KT 17/17 A30 RMK A01 T01740167  RH  096%=      5-min Rain = 0
KPA1 121006Z 25006KT 18/17 A3001 RMK A01 T01750168  RH  095%=      5-min Rain = 0
KPA1 121007Z 25006KT 18/17 A3001 RMK A01 T01760168  RH  095%=      5-min Rain = 0
KPA1 121008Z 25007KT 18/17 A3001 RMK A01 T01770168  RH  095%=      5-min Rain = 0
KPA1 121009Z 26006KT 18/17 A3001 RMK A01 T01780169  RH  094%=      5-min Rain = 0
KPA1 121010Z 26005KT 18/17 A3001 RMK A01 T01800169  RH  093%=      5-min Rain = 0
KPA1 121011Z 26004KT 18/17 A3001 RMK A01 T01800168  RH  093%=      5-min Rain = 0
KPA1 121012Z 25004KT 18/17 A3001 RMK A01 T01800167  RH  092%=      5-min Rain = 0
KPA1 121013Z 25003KT 18/17 A3001 RMK A01 T01810167  RH  092%=      5-min Rain = 0
KPA1 121014Z 26002KT 18/17 A3001 RMK A01 T01800167  RH  092%=      5-min Rain = 0
KPA1 121015Z 24001KT 18/17 A3001 RMK A01 T01800167  RH  092%=      5-min Rain = 0
KPA1 121016Z 25001KT 18/17 A3001 RMK A01 T01800166  RH  092%=      5-min Rain = 0
KPA1 121017Z 25001KT 18/17 A3001 RMK A01 T01790167  RH  092%=      5-min Rain = 0
KPA1 121018Z 29001KT 18/17 A3001 RMK A01 T01790166  RH  092%=      5-min Rain = 0
KPA1 121019Z 29001KT 18/17 A3001 RMK A01 T01790166  RH  092%=      5-min Rain = 0
KPA1 121020Z 27002KT 18/17 A3001 RMK A01 T01790166  RH  092%=      5-min Rain = 0
KPA1 121021Z 27003KT 18/17 A3001 RMK A01 T01790166  RH  092%=      5-min Rain = 0
KPA1 121022Z 27002KT 18/17 A3001 RMK A01 T01800168  RH  092%=      5-min Rain = 0
KPA1 121023Z 27002KT 18/17 A3001 RMK A01 T01810168  RH  092%=      5-min Rain = 0
KPA1 121024Z 28003KT 18/17 A3001 RMK A01 T01820169  RH  092%=      5-min Rain = 0
KPA1 121025Z 28003KT 18/17 A3001 RMK A01 T01840170  RH  092%=      5-min Rain = 0
KPA1 121026Z 28003KT 18/17 A3001 RMK A01 T01840170  RH  091%=      5-min Rain = 0
KPA1 121027Z 28003KT 19/17 A3001 RMK A01 T01860171  RH  091%=      5-min Rain = 0
KPA1 121028Z 27003KT 19/17 A3001 RMK A01 T01860171  RH  090%=      5-min Rain = 0
KPA1 121029Z 27004KT 19/17 A3001 RMK A01 T01870170  RH  090%=      5-min Rain = 0
KPA1 121030Z 27004KT 19/17 A3001 RMK A01 T01870169  RH  089%=      5-min Rain = 0
KPA1 121031Z 28004KT 19/17 A3001 RMK A01 T01870170  RH  089%=      5-min Rain = 0
KPA1 121032Z 27004KT 19/17 A3001 RMK A01 T01870169  RH  089%=      5-min Rain = 0
KPA1 121033Z 25005KT 19/17 A3001 RMK A01 T01860169  RH  090%=      5-min Rain = 0
KPA1 121034Z 25005KT 19/17 A3001 RMK A01 T01860170  RH  090%=      5-min Rain = 0
KPA1 121035Z 25005KT 19/17 A3001 RMK A01 T01860170  RH  090%=      5-min Rain = 0
KPA1 121036Z 25004KT 19/17 A3001 RMK A01 T01860170  RH  090%=      5-min Rain = 0
KPA1 121037Z 25003KT 19/17 A3001 RMK A01 T01850169  RH  090%=      5-min Rain = 0
KPA1 121038Z 24003KT 19/17 A3001 RMK A01 T01850169  RH  090%=      5-min Rain = 0
KPA1 121039Z 23002KT 18/17 A3001 RMK A01 T01840169  RH  091%=      5-min Rain = 0
KPA1 121040Z 23002KT 18/17 A3001 RMK A01 T01840168  RH  091%=      5-min Rain = 0
KPA1 121041Z 22003KT 18/17 A3001 RMK A01 T01830167  RH  090%=      5-min Rain = 0
KPA1 121042Z 22003KT 18/17 A3001 RMK A01 T01820166  RH  091%=      5-min Rain = 0
KPA1 121043Z 22003KT 18/17 A3001 RMK A01 T01810166  RH  091%=      5-min Rain = 0
KPA1 121044Z 22003KT 18/17 A3001 RMK A01 T01810166  RH  091%=      5-min Rain = 0
KPA1 121045Z 22003KT 18/17 A3001 RMK A01 T01800166  RH  092%=      5-min Rain = 0
KPA1 121046Z 22003KT 18/17 A3001 RMK A01 T01800167  RH  092%=      5-min Rain = 0
KPA1 121047Z 22004KT 18/17 A3001 RMK A01 T01800166  RH  092%=      5-min Rain = 0
KPA1 121048Z 22003KT 18/17 A3001 RMK A01 T01800166  RH  092%=      5-min Rain = 0
KPA1 121049Z 21003KT 18/17 A3001 RMK A01 T01790165  RH  092%=      5-min Rain = 0
KPA1 121050Z 21003KT 18/16 A3001 RMK A01 T01780164  RH  091%=      5-min Rain = 0
KPA1 121051Z 21003KT 18/16 A3001 RMK A01 T01770162  RH  091%=      5-min Rain = 0
KPA1 121052Z 21004KT 18/16 A3001 RMK A01 T01760161  RH  091%=      5-min Rain = 0
KPA1 121053Z 21003KT 18/16 A3001 RMK A01 T01750161  RH  091%=      5-min Rain = 0
KPA1 121054Z 21003KT 18/16 A3002 RMK A01 T01750161  RH  092%=      5-min Rain = 0
KPA1 121055Z 21004KT 18/16 A3002 RMK A01 T01750162  RH  092%=      5-min Rain = 0
KPA1 121056Z 20003KT 18/16 A3002 RMK A01 T01750162  RH  092%=      5-min Rain = 0
KPA1 121057Z 20004KT 18/16 A3002 RMK A01 T01750163  RH  093%=      5-min Rain = 0
KPA1 121058Z 20004KT 18/16 A3002 RMK A01 T01750163  RH  093%=      5-min Rain = 0
KPA1 121059Z 19004KT 18/16 A3002 RMK A01 T01750164  RH  093%=      5-min Rain = 0
KPA1 121100Z 19004KT 17/17 A3002 RMK A01 T01740165  RH  094%=      5-min Rain = 0
KPA1 121101Z 19004KT 18/17 A3002 RMK A01 T01750166  RH  094%=      5-min Rain = 0
KPA1 121102Z 20004KT 18/17 A3002 RMK A01 T01760167  RH  094%=      5-min Rain = 0
KPA1 121103Z 20004KT 18/17 A3002 RMK A01 T01760166  RH  094%=      5-min Rain = 0
KPA1 121104Z 21004KT 18/17 A3002 RMK A01 T01760166  RH  094%=      5-min Rain = 0
KPA1 121105Z 22004KT 18/17 A3002 RMK A01 T01760166  RH  094%=      5-min Rain = 0
KPA1 121106Z 21004KT 18/17 A3002 RMK A01 T01760166  RH  094%=      5-min Rain = 0
KPA1 121107Z 21004KT 18/17 A3002 RMK A01 T01760166  RH  094%=      5-min Rain = 0
KPA1 121108Z 21004KT 18/17 A3002 RMK A01 T01760167  RH  094%=      5-min Rain = 0
KPA1 121109Z 20004KT 18/17 A3002 RMK A01 T01770166  RH  093%=      5-min Rain = 0
KPA1 121110Z 20004KT 18/17 A3002 RMK A01 T01760165  RH  093%=      5-min Rain = 0
KPA1 121111Z 20004KT 18/16 A3002 RMK A01 T01760164  RH  093%=      5-min Rain = 0
KPA1 121112Z 20005KT 18/17 A3002 RMK A01 T01750165  RH  093%=      5-min Rain = 0
KPA1 121113Z 20005KT 18/17 A3002 RMK A01 T01750165  RH  094%=      5-min Rain = 0
KPA1 121114Z 20004KT 18/17 A3002 RMK A01 T01750166  RH  094%=      5-min Rain = 0
KPA1 121115Z 20004KT 18/17 A3002 RMK A01 T01750166  RH  094%=      5-min Rain = 0
KPA1 121116Z 20004KT 18/17 A3002 RMK A01 T01760167  RH  095%=      5-min Rain = 0
KPA1 121117Z 20004KT 18/17 A3002 RMK A01 T01760167  RH  095%=      5-min Rain = 0
KPA1 121118Z 20004KT 18/17 A3001 RMK A01 T01760167  RH  094%=      5-min Rain = 0
KPA1 121119Z 20003KT 18/17 A3001 RMK A01 T01760167  RH  094%=      5-min Rain = 0
KPA1 121120Z 19003KT 18/17 A3001 RMK A01 T01760167  RH  094%=      5-min Rain = 0
KPA1 121121Z 19003KT 18/17 A3001 RMK A01 T01760167  RH  094%=      5-min Rain = 0
KPA1 121122Z 20003KT 18/17 A3001 RMK A01 T01760167  RH  094%=      5-min Rain = 0
KPA1 121123Z 20002KT 18/17 A3001 RMK A01 T01760167  RH  095%=      5-min Rain = 0
KPA1 121124Z 21002KT 18/17 A3001 RMK A01 T01760167  RH  095%=      5-min Rain = 0
KPA1 121125Z 21002KT 18/17 A3001 RMK A01 T01760167  RH  095%=      5-min Rain = 0
KPA1 121126Z 21002KT 18/17 A3001 RMK A01 T01770168  RH  095%=      5-min Rain = 0
KPA1 121127Z 21002KT 18/17 A3001 RMK A01 T01770168  RH  095%=      5-min Rain = 0
KPA1 121128Z 22002KT 18/17 A3001 RMK A01 T01770169  RH  095%=      5-min Rain = 0
KPA1 121129Z 21002KT 18/17 A3001 RMK A01 T01770169  RH  094%=      5-min Rain = 0
KPA1 121130Z 20002KT 18/17 A3001 RMK A01 T01780169  RH  094%=      5-min Rain = 0
KPA1 121131Z 20002KT 18/17 A3001 RMK A01 T01780169  RH  094%=      5-min Rain = 0
KPA1 121132Z 19003KT 18/17 A3001 RMK A01 T01790168  RH  094%=      5-min Rain = 0
KPA1 121133Z 19003KT 18/17 A3001 RMK A01 T01790168  RH  093%=      5-min Rain = 0
KPA1 121134Z 18003KT 18/17 A3001 RMK A01 T01790168  RH  093%=      5-min Rain = 0
KPA1 121135Z 18003KT 18/17 A3001 RMK A01 T01790167  RH  093%=      5-min Rain = 0
KPA1 121136Z 18003KT 18/17 A3001 RMK A01 T01790166  RH  092%=      5-min Rain = 0
KPA1 121137Z 18004KT 18/17 A3001 RMK A01 T01790167  RH  092%=      5-min Rain = 0
KPA1 121138Z 18004KT 18/17 A3001 RMK A01 T01790167  RH  092%=      5-min Rain = 0
KPA1 121139Z 18004KT 18/17 A3001 RMK A01 T01790167  RH  092%=      5-min Rain = 0
KPA1 121140Z 19004KT 18/17 A3001 RMK A01 T01790167  RH  092%=      5-min Rain = 0
KPA1 121141Z 19004KT 18/17 A3001 RMK A01 T01790167  RH  092%=      5-min Rain = 0
KPA1 121142Z 19004KT 18/17 A3001 RMK A01 T01790166  RH  092%=      5-min Rain = 0
KPA1 121143Z 19004KT 18/17 A3001 RMK A01 T01790166  RH  092%=      5-min Rain = 0
KPA1 121144Z 19003KT 18/17 A3001 RMK A01 T01790166  RH  092%=      5-min Rain = 0
KPA1 121145Z 19003KT 18/17 A30 RMK A01 T01790166  RH  092%=      5-min Rain = 0
KPA1 121146Z 20003KT 18/17 A30 RMK A01 T01800168  RH  092%=      5-min Rain = 0
KPA1 121147Z 20003KT 18/17 A3001 RMK A01 T01800168  RH  092%=      5-min Rain = 0
KPA1 121148Z 20003KT 18/17 A3001 RMK A01 T01810168  RH  092%=      5-min Rain = 0
KPA1 121149Z 20003KT 18/17 A3001 RMK A01 T01810168  RH  092%=      5-min Rain = 0
KPA1 121150Z 20003KT 18/17 A3001 RMK A01 T01810167  RH  092%=      5-min Rain = 0
KPA1 121151Z 21003KT 18/17 A3001 RMK A01 T01810167  RH  092%=      5-min Rain = 0
KPA1 121152Z 21002KT 18/17 A3001 RMK A01 T01810167  RH  091%=      5-min Rain = 0
KPA1 121153Z 21002KT 18/17 A3001 RMK A01 T01810167  RH  091%=      5-min Rain = 0
KPA1 121154Z 22002KT 18/17 A3001 RMK A01 T01810167  RH  091%=      5-min Rain = 0
KPA1 121155Z 22002KT 18/17 A3001 RMK A01 T01810167  RH  092%=      5-min Rain = 0
KPA1 121156Z 22002KT 18/17 A3001 RMK A01 T01810167  RH  092%=      5-min Rain = 0
KPA1 121157Z 22002KT 18/17 A3001 RMK A01 T01810168  RH  092%=      5-min Rain = 0
KPA1 121158Z 22003KT 18/17 A3001 RMK A01 T01810168  RH  092%=      5-min Rain = 0
KPA1 121159Z 23002KT 18/17 A3001 RMK A01 T01810168  RH  092%=      5-min Rain = 0
KPA1 121200Z 23002KT 18/17 A3001 RMK A01 T01810169  RH  092%=      5-min Rain = 0
KPA1 121201Z 23002KT 18/17 A3001 RMK A01 T01820169  RH  092%=      5-min Rain = 0
KPA1 121202Z 23002KT 18/17 A3001 RMK A01 T01820169  RH  092%=      5-min Rain = 0
KPA1 121203Z 23002KT 18/17 A3001 RMK A01 T01820169  RH  092%=      5-min Rain = 0
KPA1 121204Z 23002KT 18/17 A3001 RMK A01 T01820169  RH  092%=      5-min Rain = 0
KPA1 121205Z 22002KT 18/17 A3001 RMK A01 T01820169  RH  092%=      5-min Rain = 0
KPA1 121206Z 22002KT 18/17 A3001 RMK A01 T01820169  RH  092%=      5-min Rain = 0
KPA1 121207Z 22002KT 18/17 A3001 RMK A01 T01820169  RH  092%=      5-min Rain = 0
KPA1 121208Z 22002KT 18/17 A3001 RMK A01 T01820169  RH  092%=      5-min Rain = 0
KPA1 121209Z 22002KT 18/17 A3001 RMK A01 T01830169  RH  092%=      5-min Rain = 0
KPA1 121210Z 21002KT 18/17 A3001 RMK A01 T01830170  RH  092%=      5-min Rain = 0
KPA1 121211Z 21002KT 18/17 A3001 RMK A01 T01830169  RH  092%=      5-min Rain = 0
KPA1 121212Z 20002KT 18/17 A3001 RMK A01 T01830169  RH  091%=      5-min Rain = 0
KPA1 121213Z 20002KT 18/17 A3001 RMK A01 T01830169  RH  091%=      5-min Rain = 0
KPA1 121214Z 20003KT 18/17 A3001 RMK A01 T01830168  RH  091%=      5-min Rain = 0
KPA1 121215Z 20003KT 18/17 A3001 RMK A01 T01830168  RH  091%=      5-min Rain = 0
KPA1 121216Z 20003KT 18/17 A3001 RMK A01 T01830168  RH  091%=      5-min Rain = 0
KPA1 121217Z 20003KT 18/17 A3001 RMK A01 T01840169  RH  091%=      5-min Rain = 0
KPA1 121218Z 20003KT 18/17 A3001 RMK A01 T01840168  RH  091%=      5-min Rain = 0
KPA1 121219Z 20003KT 19/17 A3001 RMK A01 T01850168  RH  090%=      5-min Rain = 0
KPA1 121220Z 20003KT 19/17 A3001 RMK A01 T01850168  RH  090%=      5-min Rain = 0
KPA1 121221Z 20003KT 19/17 A3001 RMK A01 T01850168  RH  090%=      5-min Rain = 0
KPA1 121222Z 19003KT 19/17 A3001 RMK A01 T01850168  RH  089%=      5-min Rain = 0
KPA1 121223Z 19003KT 19/17 A3001 RMK A01 T01860168  RH  089%=      5-min Rain = 0
KPA1 121224Z 19002KT 19/17 A3001 RMK A01 T01860168  RH  089%=      5-min Rain = 0
KPA1 121225Z 21002KT 19/17 A3001 RMK A01 T01860168  RH  089%=      5-min Rain = 0
KPA1 121226Z 19002KT 19/17 A3001 RMK A01 T01870168  RH  089%=      5-min Rain = 0
KPA1 121227Z 19002KT 19/17 A3001 RMK A01 T01870168  RH  089%=      5-min Rain = 0
KPA1 121228Z 19001KT 19/17 A3001 RMK A01 T01870168  RH  088%=      5-min Rain = 0
KPA1 121229Z 19001KT 19/17 A3001 RMK A01 T01880168  RH  088%=      5-min Rain = 0
KPA1 121230Z 19001KT 19/17 A3001 RMK A01 T01890168  RH  088%=      5-min Rain = 0
KPA1 121231Z 19001KT 19/17 A3001 RMK A01 T01890168  RH  088%=      5-min Rain = 0
KPA1 121232Z 19000KT 19/17 A3001 RMK A01 T01910169  RH  087%=      5-min Rain = 0
KPA1 121233Z 19000KT 19/17 A3001 RMK A01 T01920169  RH  086%=      5-min Rain = 0
KPA1 121234Z 00000KT 19/17 A3001 RMK A01 T01940169  RH  085%=      5-min Rain = 0
KPA1 121235Z 00000KT 20/17 A3001 RMK A01 T01950168  RH  084%=      5-min Rain = 0
KPA1 121236Z 22000KT 20/17 A3001 RMK A01 T01950168  RH  084%=      5-min Rain = 0
KPA1 121237Z 22001KT 20/17 A3001 RMK A01 T01960168  RH  084%=      5-min Rain = 0
KPA1 121238Z 22001KT 20/17 A3001 RMK A01 T01950167  RH  084%=      5-min Rain = 0
KPA1 121239Z 22001KT 20/17 A3002 RMK A01 T01950168  RH  084%=      5-min Rain = 0
KPA1 121240Z 22001KT 20/17 A3002 RMK A01 T01950168  RH  084%=      5-min Rain = 0
KPA1 121241Z 22001KT 20/17 A3002 RMK A01 T01950167  RH  084%=      5-min Rain = 0
KPA1 121242Z 22001KT 20/17 A3001 RMK A01 T01950167  RH  084%=      5-min Rain = 0
KPA1 121243Z 22000KT 20/17 A3001 RMK A01 T01960169  RH  084%=      5-min Rain = 0
KPA1 121244Z 00000KT 20/17 A3001 RMK A01 T01970173  RH  086%=      5-min Rain = 0
KPA1 121245Z 22000KT 20/17 A3001 RMK A01 T01990173  RH  085%=      5-min Rain = 0
KPA1 121246Z 22001KT 20/17 A3001 RMK A01 T02010173  RH  084%=      5-min Rain = 0
KPA1 121247Z 22000KT 20/17 A3002 RMK A01 T02030174  RH  083%=      5-min Rain = 0
KPA1 121248Z 00000KT 20/17 A3001 RMK A01 T02040174  RH  083%=      5-min Rain = 0
KPA1 121249Z 00000KT 21/17 A3001 RMK A01 T02050173  RH  082%=      5-min Rain = 0
KPA1 121250Z 00000KT 21/17 A3001 RMK A01 T02050173  RH  082%=      5-min Rain = 0
KPA1 121251Z 00000KT 21/17 A3002 RMK A01 T02050173  RH  082%=      5-min Rain = 0
KPA1 121252Z 00000KT 21/17 A3002 RMK A01 T02050172  RH  082%=      5-min Rain = 0
KPA1 121253Z 24000KT 21/17 A3002 RMK A01 T02050172  RH  081%=      5-min Rain = 0
KPA1 121254Z 24001KT 21/17 A3002 RMK A01 T02050171  RH  081%=      5-min Rain = 0
KPA1 121255Z 26000KT 21/17 A3002 RMK A01 T02050172  RH  082%=      5-min Rain = 0
KPA1 121256Z 26000KT 21/17 A3002 RMK A01 T02050173  RH  082%=      5-min Rain = 0
KPA1 121257Z 26000KT 21/18 A3002 RMK A01 T02060175  RH  082%=      5-min Rain = 0
KPA1 121258Z 26001KT 21/18 A3002 RMK A01 T02070175  RH  082%=      5-min Rain = 0
KPA1 121259Z 26001KT 21/18 A3002 RMK A01 T02070175  RH  082%=      5-min Rain = 0
KPA1 121300Z 26000KT 21/17 A3002 RMK A01 T02080174  RH  081%=      5-min Rain = 0
KPA1 121301Z 26001KT 21/17 A3002 RMK A01 T02070174  RH  081%=      5-min Rain = 0
KPA1 121302Z 26001KT 21/18 A3002 RMK A01 T02080175  RH  082%=      5-min Rain = 0
KPA1 121303Z 26001KT 21/17 A3002 RMK A01 T02080174  RH  081%=      5-min Rain = 0
KPA1 121304Z 26002KT 21/17 A3002 RMK A01 T02080174  RH  081%=      5-min Rain = 0
KPA1 121305Z 25001KT 21/17 A3002 RMK A01 T02090172  RH  080%=      5-min Rain = 0
KPA1 121306Z 25001KT 21/17 A3002 RMK A01 T02090173  RH  080%=      5-min Rain = 0
KPA1 121307Z 25001KT 21/17 A3002 RMK A01 T02090170  RH  078%=      5-min Rain = 0
KPA1 121308Z 25000KT 21/17 A3002 RMK A01 T02100173  RH  079%=      5-min Rain = 0
KPA1 121309Z 25000KT 21/17 A3002 RMK A01 T02110174  RH  079%=      5-min Rain = 0
KPA1 121310Z 23001KT 21/17 A3002 RMK A01 T02110171  RH  078%=      5-min Rain = 0
KPA1 121311Z 22001KT 21/17 A3002 RMK A01 T02120173  RH  079%=      5-min Rain = 0
KPA1 121312Z 22001KT 21/18 A3002 RMK A01 T02130176  RH  079%=      5-min Rain = 0
KPA1 121313Z 20001KT 21/18 A3002 RMK A01 T02130175  RH  079%=      5-min Rain = 0
KPA1 121314Z 20002KT 21/17 A3002 RMK A01 T02140173  RH  078%=      5-min Rain = 0
KPA1 121315Z 18001KT 21/17 A3002 RMK A01 T02140173  RH  077%=      5-min Rain = 0
KPA1 121316Z 19001KT 22/17 A3002 RMK A01 T02150174  RH  077%=      5-min Rain = 0
KPA1 121317Z 18001KT 22/17 A3002 RMK A01 T02160173  RH  077%=      5-min Rain = 0
KPA1 121318Z 17001KT 22/17 A3002 RMK A01 T02160174  RH  077%=      5-min Rain = 0
KPA1 121319Z 19002KT 22/18 A3002 RMK A01 T02170176  RH  077%=      5-min Rain = 0
KPA1 121320Z 18002KT 22/17 A3002 RMK A01 T02180173  RH  076%=      5-min Rain = 0
KPA1 121321Z 19001KT 22/18 A3002 RMK A01 T02190175  RH  076%=      5-min Rain = 0
KPA1 121322Z 19001KT 22/18 A3002 RMK A01 T02190175  RH  076%=      5-min Rain = 0
KPA1 121323Z 21001KT 22/18 A3002 RMK A01 T02200176  RH  076%=      5-min Rain = 0
KPA1 121324Z 20001KT 22/18 A3002 RMK A01 T02200175  RH  076%=      5-min Rain = 0
KPA1 121325Z 21001KT 22/18 A3002 RMK A01 T02200177  RH  077%=      5-min Rain = 0
KPA1 121326Z 22001KT 22/18 A3002 RMK A01 T02210180  RH  078%=      5-min Rain = 0
KPA1 121327Z 23001KT 22/18 A3002 RMK A01 T02210179  RH  077%=      5-min Rain = 0
KPA1 121328Z 23001KT 22/18 A3002 RMK A01 T02210176  RH  076%=      5-min Rain = 0
KPA1 121329Z 23001KT 22/18 A3002 RMK A01 T02210177  RH  076%=      5-min Rain = 0
KPA1 121330Z 23001KT 22/18 A3002 RMK A01 T02210176  RH  076%=      5-min Rain = 0
KPA1 121331Z 21001KT 22/18 A3002 RMK A01 T02210178  RH  076%=      5-min Rain = 0
KPA1 121332Z 20001KT 22/18 A3002 RMK A01 T02220179  RH  077%=      5-min Rain = 0
KPA1 121333Z 21000KT 22/18 A3002 RMK A01 T02230180  RH  077%=      5-min Rain = 0
KPA1 121334Z 20001KT 22/18 A3002 RMK A01 T02240181  RH  076%=      5-min Rain = 0
KPA1 121335Z 19001KT 22/18 A3002 RMK A01 T02240181  RH  076%=      5-min Rain = 0
KPA1 121336Z 18001KT 23/18 A3002 RMK A01 T02260180  RH  076%=      5-min Rain = 0
KPA1 121337Z 18001KT 23/18 A3002 RMK A01 T02270180  RH  075%=      5-min Rain = 0
KPA1 121338Z 17001KT 23/18 A3002 RMK A01 T02280181  RH  074%=      5-min Rain = 0
KPA1 121339Z 18002KT 23/18 A3002 RMK A01 T02290179  RH  073%=      5-min Rain = 0
KPA1 121340Z 19002KT 23/18 A3002 RMK A01 T02290179  RH  073%=      5-min Rain = 0
KPA1 121341Z 19002KT 23/18 A3002 RMK A01 T02310180  RH  073%=      5-min Rain = 0
KPA1 121342Z 19002KT 23/18 A3002 RMK A01 T02320180  RH  073%=      5-min Rain = 0
KPA1 121343Z 20002KT 23/18 A3002 RMK A01 T02330181  RH  072%=      5-min Rain = 0
KPA1 121344Z 20002KT 23/18 A3002 RMK A01 T02340180  RH  071%=      5-min Rain = 0
KPA1 121345Z 20002KT 24/18 A3002 RMK A01 T02350179  RH  071%=      5-min Rain = 0
KPA1 121346Z 19003KT 24/18 A3002 RMK A01 T02360179  RH  071%=      5-min Rain = 0
KPA1 121347Z 20003KT 24/18 A3002 RMK A01 T02370180  RH  070%=      5-min Rain = 0
KPA1 121348Z 19003KT 24/18 A3002 RMK A01 T02390179  RH  069%=      5-min Rain = 0
KPA1 121349Z 19003KT 24/18 A3002 RMK A01 T02410176  RH  067%=      5-min Rain = 0
KPA1 121350Z 19004KT 24/18 A3003 RMK A01 T02430176  RH  067%=      5-min Rain = 0
KPA1 121351Z 19003KT 24/18 A3003 RMK A01 T02440175  RH  065%=      5-min Rain = 0
KPA1 121352Z 18003KT 25/18 A3003 RMK A01 T02460175  RH  065%=      5-min Rain = 0
KPA1 121353Z 19003KT 25/18 A3003 RMK A01 T02470177  RH  065%=      5-min Rain = 0
KPA1 121354Z 19003KT 25/18 A3003 RMK A01 T02480175  RH  064%=      5-min Rain = 0
KPA1 121355Z 17003KT 25/18 A3002 RMK A01 T02490175  RH  063%=      5-min Rain = 0
KPA1 121356Z 19003KT 25/17 A3002 RMK A01 T02510173  RH  062%=      5-min Rain = 0
KPA1 121357Z 19002KT 25/17 A3002 RMK A01 T02520174  RH  062%=      5-min Rain = 0
KPA1 121358Z 19003KT 25/17 A3002 RMK A01 T02520173  RH  062%=      5-min Rain = 0
KPA1 121359Z 18004KT 25/17 A3002 RMK A01 T02540174  RH  061%=      5-min Rain = 0
KPA1 121400Z 19004KT 26/17 A3002 RMK A01 T02560174  RH  060%=      5-min Rain = 0
KPA1 121401Z 19004KT 26/17 A3002 RMK A01 T02570173  RH  060%=      5-min Rain = 0
KPA1 121402Z 18004KT 26/18 A3002 RMK A01 T02580175  RH  060%=      5-min Rain = 0
KPA1 121403Z 18004KT 26/17 A3002 RMK A01 T02590173  RH  059%=      5-min Rain = 0
KPA1 121404Z 18004KT 26/17 A3002 RMK A01 T02600172  RH  058%=      5-min Rain = 0
KPA1 121405Z 18005KT 26/17 A3002 RMK A01 T02620168  RH  056%=      5-min Rain = 0
KPA1 121406Z 18005KT 26/17 A3002 RMK A01 T02630168  RH  056%=      5-min Rain = 0
KPA1 121407Z 17005KT 26/17 A3002 RMK A01 T02630166  RH  055%=      5-min Rain = 0
KPA1 121408Z 18006KT 26/16 A3002 RMK A01 T02630164  RH  055%=      5-min Rain = 0
KPA1 121409Z 19006KT 26/17 A3002 RMK A01 T02620167  RH  056%=      5-min Rain = 0
KPA1 121410Z 18004KT 26/17 A3002 RMK A01 T02620167  RH  056%=      5-min Rain = 0
KPA1 121411Z 18006KT 26/17 A3002 RMK A01 T02630167  RH  056%=      5-min Rain = 0
KPA1 121412Z 18005KT 27/17 A3002 RMK A01 T02650169  RH  055%=      5-min Rain = 0
KPA1 121413Z 19006KT 27/17 A3002 RMK A01 T02670168  RH  054%=      5-min Rain = 0
KPA1 121414Z 19005KT 27/17 A3002 RMK A01 T02680167  RH  054%=      5-min Rain = 0
KPA1 121415Z 18006KT 27/17 A3002 RMK A01 T02680168  RH  054%=      5-min Rain = 0
KPA1 121416Z 18006KT 27/17 A3002 RMK A01 T02690167  RH  054%=      5-min Rain = 0
KPA1 121417Z 17006KT 27/17 A3002 RMK A01 T02690167  RH  053%=      5-min Rain = 0
KPA1 121418Z 19005KT 27/17 A3002 RMK A01 T02690168  RH  054%=      5-min Rain = 0
KPA1 121419Z 18007KT 27/17 A3002 RMK A01 T02710168  RH  053%=      5-min Rain = 0
KPA1 121420Z 17006KT 27/17 A3002 RMK A01 T02700167  RH  053%=      5-min Rain = 0
KPA1 121421Z 18005KT 27/17 A3002 RMK A01 T02700168  RH  054%=      5-min Rain = 0
KPA1 121422Z 18006KT 27/17 A3002 RMK A01 T02700168  RH  053%=      5-min Rain = 0
KPA1 121423Z 19007KT 27/17 A3002 RMK A01 T02720166  RH  053%=      5-min Rain = 0
KPA1 121424Z 19005KT 27/17 A3002 RMK A01 T02720168  RH  053%=      5-min Rain = 0
KPA1 121425Z 21006KT 27/17 A3002 RMK A01 T02720170  RH  053%=      5-min Rain = 0
KPA1 121426Z 20007KT 27/17 A3002 RMK A01 T02720173  RH  055%=      5-min Rain = 0
KPA1 121427Z 21007KT 27/17 A3002 RMK A01 T02740167  RH  052%=      5-min Rain = 0
KPA1 121428Z 21006KT 27/17 A3002 RMK A01 T02740166  RH  052%=      5-min Rain = 0
KPA1 121429Z 21007KT 27/17 A3002 RMK A01 T02740169  RH  053%=      5-min Rain = 0
KPA1 121430Z 20007KT 27/17 A3002 RMK A01 T02740168  RH  052%=      5-min Rain = 0
KPA1 121431Z 20010KT 28/16 A3002 RMK A01 T02750164  RH  051%=      5-min Rain = 0
KPA1 121432Z 20009KT 28/16 A3002 RMK A01 T02750162  RH  050%=      5-min Rain = 0
KPA1 121433Z 21008KT 28/16 A3002 RMK A01 T02760162  RH  050%=      5-min Rain = 0
KPA1 121434Z 21006KT 28/17 A3002 RMK A01 T02780167  RH  051%=      5-min Rain = 0
KPA1 121435Z 20007KT 28/17 A3002 RMK A01 T02780169  RH  051%=      5-min Rain = 0
KPA1 121436Z 20009KT 28/17 A3002 RMK A01 T02790170  RH  051%=      5-min Rain = 0
KPA1 121437Z 21009KT 28/17 A3002 RMK A01 T02800165  RH  050%=      5-min Rain = 0
KPA1 121438Z 21008KT 28/17 A3002 RMK A01 T02810165  RH  049%=      5-min Rain = 0
KPA1 121439Z 21012KT 28/17 A3002 RMK A01 T02820167  RH  050%=      5-min Rain = 0
KPA1 121440Z 21013KT 28/16 A3002 RMK A01 T02820163  RH  048%=      5-min Rain = 0
KPA1 121441Z 21011KT 28/16 A3002 RMK A01 T02820160  RH  047%=      5-min Rain = 0
KPA1 121442Z 22011KT 28/16 A3002 RMK A01 T02820162  RH  048%=      5-min Rain = 0
KPA1 121443Z 21011KT 28/16 A3002 RMK A01 T02830162  RH  048%=      5-min Rain = 0
KPA1 121444Z 21014KT 28/16 A3002 RMK A01 T02840163  RH  048%=      5-min Rain = 0
KPA1 121445Z 22012KT 28/16 A3002 RMK A01 T02840162  RH  047%=      5-min Rain = 0
KPA1 121446Z 22011KT 28/16 A3002 RMK A01 T02840163  RH  048%=      5-min Rain = 0
KPA1 121447Z 22011KT 28/16 A3002 RMK A01 T02830164  RH  048%=      5-min Rain = 0
KPA1 121448Z 22011KT 28/16 A3002 RMK A01 T02830164  RH  049%=      5-min Rain = 0
KPA1 121449Z 21013KT 28/16 A3002 RMK A01 T02830161  RH  048%=      5-min Rain = 0
KPA1 121450Z 22012KT 28/16 A3002 RMK A01 T02840163  RH  048%=      5-min Rain = 0
KPA1 121451Z 22010KT 28/17 A3002 RMK A01 T02830165  RH  049%=      5-min Rain = 0
KPA1 121452Z 22012KT 28/16 A3002 RMK A01 T02830163  RH  048%=      5-min Rain = 0
KPA1 121453Z 21011KT 28/16 A3002 RMK A01 T02840161  RH  047%=      5-min Rain = 0
KPA1 121454Z 22011KT 29/17 A3002 RMK A01 T02850166  RH  048%=      5-min Rain = 0
KPA1 121455Z 21011KT 29/17 A3002 RMK A01 T02850168  RH  049%=      5-min Rain = 0
KPA1 121456Z 22012KT 29/16 A3002 RMK A01 T02860164  RH  048%=      5-min Rain = 0
KPA1 121457Z 22009KT 29/17 A3002 RMK A01 T02880167  RH  048%=      5-min Rain = 0
KPA1 121458Z 22010KT 29/17 A3002 RMK A01 T02900166  RH  047%=      5-min Rain = 0
KPA1 121459Z 22011KT 29/16 A3002 RMK A01 T02910164  RH  046%=      5-min Rain = 0
KPA1 121500Z 22011KT 29/17 A3002 RMK A01 T02900166  RH  047%=      5-min Rain = 0
KPA1 121501Z 22012KT 29/16 A3002 RMK A01 T02900162  RH  046%=      5-min Rain = 0
KPA1 121502Z 22011KT 29/16 A3002 RMK A01 T02900163  RH  046%=      5-min Rain = 0
KPA1 121503Z 22012KT 29/16 A3002 RMK A01 T02900163  RH  046%=      5-min Rain = 0
KPA1 121504Z 21013KT 29/16 A3002 RMK A01 T02910161  RH  045%=      5-min Rain = 0
KPA1 121505Z 22011KT 29/16 A3002 RMK A01 T02920161  RH  045%=      5-min Rain = 0
KPA1 121506Z 22011G16KT 29/16 A3002 RMK A01 T02910160  RH  045%=      5-min Rain = 0
KPA1 121507Z 22009KT 29/17 A3002 RMK A01 T02930165  RH  046%=      5-min Rain = 0
KPA1 121508Z 22008KT 30/17 A3002 RMK A01 T02950172  RH  047%=      5-min Rain = 0
KPA1 121509Z 22008KT 30/17 A3002 RMK A01 T02980173  RH  047%=      5-min Rain = 0
KPA1 121510Z 21012KT 30/17 A3002 RMK A01 T02990168  RH  045%=      5-min Rain = 0
KPA1 121511Z 23012KT 30/16 A3002 RMK A01 T02980163  RH  044%=      5-min Rain = 0
KPA1 121512Z 23012KT 30/16 A3002 RMK A01 T02960160  RH  044%=      5-min Rain = 0
KPA1 121513Z 23012KT 30/16 A3002 RMK A01 T02950160  RH  044%=      5-min Rain = 0
KPA1 121514Z 23009KT 30/16 A3002 RMK A01 T02950161  RH  044%=      5-min Rain = 0
KPA1 121515Z 22009KT 30/17 A3002 RMK A01 T02950167  RH  046%=      5-min Rain = 0
KPA1 121516Z 22010KT 30/17 A3002 RMK A01 T02970168  RH  046%=      5-min Rain = 0
KPA1 121517Z 22010KT 30/17 A3002 RMK A01 T02980165  RH  045%=      5-min Rain = 0
KPA1 121518Z 22010KT 30/17 A3002 RMK A01 T02990166  RH  045%=      5-min Rain = 0
KPA1 121519Z 23011KT 30/17 A3002 RMK A01 T03000166  RH  044%=      5-min Rain = 0
KPA1 121520Z 23013KT 30/16 A3002 RMK A01 T02990160  RH  043%=      5-min Rain = 0
KPA1 121521Z 22013KT 30/16 A3002 RMK A01 T02970160  RH  043%=      5-min Rain = 0
KPA1 121522Z 23012KT 30/16 A3002 RMK A01 T02970158  RH  043%=      5-min Rain = 0
KPA1 121523Z 23014KT 30/16 A3002 RMK A01 T02970159  RH  043%=      5-min Rain = 0
KPA1 121524Z 23011KT 30/16 A3002 RMK A01 T02960159  RH  043%=      5-min Rain = 0
KPA1 121525Z 24011KT 30/16 A3002 RMK A01 T02980161  RH  044%=      5-min Rain = 0
KPA1 121526Z 23010KT 30/16 A3002 RMK A01 T03010163  RH  043%=      5-min Rain = 0
KPA1 121527Z 23010KT 30/16 A3002 RMK A01 T03000162  RH  043%=      5-min Rain = 0
KPA1 121528Z 23012KT 30/16 A3002 RMK A01 T03000162  RH  043%=      5-min Rain = 0
KPA1 121529Z 23010KT 30/16 A3002 RMK A01 T02990160  RH  043%=      5-min Rain = 0
KPA1 121530Z 23009KT 30/17 A3002 RMK A01 T03000167  RH  045%=      5-min Rain = 0
KPA1 121531Z 23013KT 30/16 A3002 RMK A01 T03030163  RH  043%=      5-min Rain = 0
KPA1 121532Z 22014KT 30/17 A3002 RMK A01 T03030165  RH  043%=      5-min Rain = 0
KPA1 121533Z 22014KT 30/17 A3002 RMK A01 T03020166  RH  044%=      5-min Rain = 0
KPA1 121534Z 22012KT 30/16 A3002 RMK A01 T03010164  RH  044%=      5-min Rain = 0
KPA1 121535Z 22013KT 30/16 A3002 RMK A01 T03010162  RH  043%=      5-min Rain = 0
KPA1 121536Z 23011KT 30/16 A3002 RMK A01 T03020162  RH  043%=      5-min Rain = 0
KPA1 121537Z 22012KT 30/17 A3002 RMK A01 T03030165  RH  043%=      5-min Rain = 0
KPA1 121538Z 22013KT 30/16 A3002 RMK A01 T03040162  RH  042%=      5-min Rain = 0
KPA1 121539Z 22011KT 30/17 A3002 RMK A01 T03040166  RH  044%=      5-min Rain = 0
KPA1 121540Z 22014KT 30/16 A3002 RMK A01 T03040164  RH  043%=      5-min Rain = 0
KPA1 121541Z 22012KT 30/16 A3002 RMK A01 T03040163  RH  043%=      5-min Rain = 0
KPA1 121542Z 22011KT 30/16 A3002 RMK A01 T03040162  RH  042%=      5-min Rain = 0
KPA1 121543Z 22012KT 31/16 A3002 RMK A01 T03060162  RH  042%=      5-min Rain = 0
KPA1 121544Z 23010KT 31/16 A3002 RMK A01 T03050161  RH  042%=      5-min Rain = 0
KPA1 121545Z 23010KT 30/16 A3002 RMK A01 T03040162  RH  042%=      5-min Rain = 0
KPA1 121546Z 23009KT 30/17 A3002 RMK A01 T03040165  RH  043%=      5-min Rain = 0
KPA1 121547Z 22013KT 31/17 A3002 RMK A01 T03070169  RH  043%=      5-min Rain = 0
KPA1 121548Z 22013KT 31/16 A3002 RMK A01 T03070163  RH  042%=      5-min Rain = 0
KPA1 121549Z 22013KT 31/16 A3002 RMK A01 T03060161  RH  042%=      5-min Rain = 0
KPA1 121550Z 23012KT 31/16 A3002 RMK A01 T03050161  RH  042%=      5-min Rain = 0
KPA1 121551Z 23011KT 31/16 A3002 RMK A01 T03050163  RH  042%=      5-min Rain = 0
KPA1 121552Z 23013KT 31/16 A3002 RMK A01 T03070163  RH  042%=      5-min Rain = 0
KPA1 121553Z 23013KT 31/16 A3002 RMK A01 T03070163  RH  042%=      5-min Rain = 0
KPA1 121554Z 23013KT 31/16 A3002 RMK A01 T03080164  RH  042%=      5-min Rain = 0
KPA1 121555Z 23013KT 31/16 A3002 RMK A01 T03090163  RH  041%=      5-min Rain = 0
KPA1 121556Z 22011KT 31/16 A3002 RMK A01 T03090163  RH  041%=      5-min Rain = 0
KPA1 121557Z 22013KT 31/17 A3002 RMK A01 T03090165  RH  042%=      5-min Rain = 0
KPA1 121558Z 22012KT 31/16 A3002 RMK A01 T03100163  RH  041%=      5-min Rain = 0
KPA1 121559Z 23010KT 31/16 A3002 RMK A01 T03100161  RH  041%=      5-min Rain = 0
KPA1 121600Z 23011KT 31/16 A3002 RMK A01 T03100164  RH  041%=      5-min Rain = 0
KPA1 121601Z 23012KT 31/16 A3002 RMK A01 T03100163  RH  041%=      5-min Rain = 0
KPA1 121602Z 23012KT 31/16 A3002 RMK A01 T03090163  RH  041%=      5-min Rain = 0
KPA1 121603Z 23010KT 31/16 A3002 RMK A01 T03100164  RH  042%=      5-min Rain = 0
KPA1 121604Z 24010KT 31/17 A3002 RMK A01 T03110166  RH  042%=      5-min Rain = 0
KPA1 121605Z 24012KT 31/16 A3002 RMK A01 T03130163  RH  041%=      5-min Rain = 0
KPA1 121606Z 23013KT 31/16 A3002 RMK A01 T03130163  RH  040%=      5-min Rain = 0
KPA1 121607Z 22012KT 31/16 A3002 RMK A01 T03130163  RH  040%=      5-min Rain = 0
KPA1 121608Z 23012KT 31/16 A3002 RMK A01 T03130163  RH  041%=      5-min Rain = 0
KPA1 121609Z 23010KT 31/17 A3002 RMK A01 T03130166  RH  041%=      5-min Rain = 0
KPA1 121610Z 23012KT 31/16 A3002 RMK A01 T03140163  RH  040%=      5-min Rain = 0
KPA1 121611Z 22012KT 31/17 A3002 RMK A01 T03140165  RH  041%=      5-min Rain = 0
KPA1 121612Z 23012KT 31/16 A3002 RMK A01 T03140163  RH  040%=      5-min Rain = 0
KPA1 121613Z 24012KT 32/16 A3002 RMK A01 T03150161  RH  040%=      5-min Rain = 0
KPA1 121614Z 24012KT 31/16 A3002 RMK A01 T03130159  RH  039%=      5-min Rain = 0
KPA1 121615Z 23010KT 31/16 A3002 RMK A01 T03130164  RH  041%=      5-min Rain = 0
KPA1 121616Z 22011KT 32/17 A3002 RMK A01 T03160166  RH  041%=      5-min Rain = 0
KPA1 121617Z 22010KT 32/17 A3002 RMK A01 T03190167  RH  040%=      5-min Rain = 0
KPA1 121618Z 23012KT 32/17 A3002 RMK A01 T03190166  RH  040%=      5-min Rain = 0
KPA1 121619Z 24013KT 32/16 A3002 RMK A01 T03200164  RH  039%=      5-min Rain = 0
KPA1 121620Z 23014KT 32/16 A3002 RMK A01 T03210163  RH  039%=      5-min Rain = 0
KPA1 121621Z 23011KT 32/16 A3002 RMK A01 T03200162  RH  039%=      5-min Rain = 0
KPA1 121622Z 23010KT 32/16 A3002 RMK A01 T03200163  RH  039%=      5-min Rain = 0
KPA1 121623Z 24012G17KT 32/17 A3002 RMK A01 T03180165  RH  040%=      5-min Rain = 0
KPA1 121624Z 24014KT 32/16 A3002 RMK A01 T03190159  RH  038%=      5-min Rain = 0
KPA1 121625Z 23012KT 32/16 A3002 RMK A01 T03210159  RH  038%=      5-min Rain = 0
KPA1 121626Z 24011KT 32/16 A3002 RMK A01 T03220158  RH  037%=      5-min Rain = 0
KPA1 121627Z 24009KT 32/16 A3002 RMK A01 T03220160  RH  038%=      5-min Rain = 0
KPA1 121628Z 24011KT 33/16 A3002 RMK A01 T03260161  RH  037%=      5-min Rain = 0
KPA1 121629Z 24011KT 33/16 A3002 RMK A01 T03260160  RH  037%=      5-min Rain = 0
KPA1 121630Z 23012KT 33/16 A3002 RMK A01 T03250161  RH  037%=      5-min Rain = 0
KPA1 121631Z 23011KT 33/16 A3002 RMK A01 T03250158  RH  037%=      5-min Rain = 0
KPA1 121632Z 22011KT 32/16 A3002 RMK A01 T03220160  RH  038%=      5-min Rain = 0
KPA1 121633Z 24012KT 32/16 A3002 RMK A01 T03210163  RH  039%=      5-min Rain = 0
KPA1 121634Z 24012KT 32/16 A3002 RMK A01 T03210155  RH  037%=      5-min Rain = 0
KPA1 121635Z 24009KT 32/16 A3002 RMK A01 T03220155  RH  037%=      5-min Rain = 0
KPA1 121636Z 23010KT 32/16 A3002 RMK A01 T03240162  RH  038%=      5-min Rain = 0
KPA1 121637Z 23012KT 33/16 A3002 RMK A01 T03250163  RH  038%=      5-min Rain = 0
KPA1 121638Z 24012KT 32/16 A3002 RMK A01 T03230160  RH  038%=      5-min Rain = 0
KPA1 121639Z 24010KT 32/16 A3002 RMK A01 T03210158  RH  037%=      5-min Rain = 0
KPA1 121640Z 24008KT 32/16 A3002 RMK A01 T03210159  RH  038%=      5-min Rain = 0
KPA1 121641Z 23009KT 32/16 A3002 RMK A01 T03210159  RH  038%=      5-min Rain = 0
KPA1 121642Z 23007KT 32/16 A3002 RMK A01 T03210164  RH  039%=      5-min Rain = 0
KPA1 121643Z 22011KT 33/17 A3002 RMK A01 T03260172  RH  040%=      5-min Rain = 0
KPA1 121644Z 22009KT 33/17 A3002 RMK A01 T03290173  RH  040%=      5-min Rain = 0
KPA1 121645Z 23009KT 33/17 A3002 RMK A01 T03290165  RH  038%=      5-min Rain = 0
KPA1 121646Z 24009KT 33/17 A3002 RMK A01 T03280165  RH  038%=      5-min Rain = 0
KPA1 121647Z 25009KT 33/16 A3002 RMK A01 T03310163  RH  036%=      5-min Rain = 0
KPA1 121648Z 25009KT 33/16 A3002 RMK A01 T03340159  RH  035%=      5-min Rain = 0
KPA1 121649Z 22009KT 33/17 A3002 RMK A01 T03330165  RH  037%=      5-min Rain = 0
KPA1 121650Z 22009KT 33/16 A3002 RMK A01 T03330164  RH  036%=      5-min Rain = 0
KPA1 121651Z 21009KT 33/16 A3002 RMK A01 T03310159  RH  036%=      5-min Rain = 0
KPA1 121652Z 22009KT 33/16 A3002 RMK A01 T03290159  RH  036%=      5-min Rain = 0
KPA1 121653Z 23008KT 33/16 A3002 RMK A01 T03290159  RH  036%=      5-min Rain = 0
KPA1 121654Z 23009KT 33/16 A3002 RMK A01 T03280161  RH  037%=      5-min Rain = 0
KPA1 121655Z 23008KT 33/16 A3002 RMK A01 T03260159  RH  037%=      5-min Rain = 0
KPA1 121656Z 24009KT 33/16 A3002 RMK A01 T03250158  RH  037%=      5-min Rain = 0
KPA1 121657Z 24005KT 32/16 A3002 RMK A01 T03240157  RH  037%=      5-min Rain = 0
KPA1 121658Z 22005KT 32/16 A3002 RMK A01 T03230157  RH  037%=      5-min Rain = 0
KPA1 121659Z 22007KT 33/16 A3002 RMK A01 T03250162  RH  037%=      5-min Rain = 0
KPA1 121700Z 24008KT 33/17 A3002 RMK A01 T03300165  RH  037%=      5-min Rain = 0
KPA1 121701Z 22006KT 33/16 A3002 RMK A01 T03300161  RH  036%=      5-min Rain = 0
KPA1 121702Z 22007KT 33/16 A3002 RMK A01 T03290161  RH  037%=      5-min Rain = 0
KPA1 121703Z 22008KT 33/16 A3002 RMK A01 T03280162  RH  037%=      5-min Rain = 0
KPA1 121704Z 22009KT 33/16 A3002 RMK A01 T03280164  RH  037%=      5-min Rain = 0
KPA1 121705Z 22006KT 33/16 A3002 RMK A01 T03290163  RH  037%=      5-min Rain = 0
KPA1 121706Z 22006KT 33/16 A3002 RMK A01 T03290161  RH  037%=      5-min Rain = 0
KPA1 121707Z 23006KT 33/16 A3002 RMK A01 T03280161  RH  037%=      5-min Rain = 0
KPA1 121708Z 22008KT 33/16 A3002 RMK A01 T03300162  RH  036%=      5-min Rain = 0
KPA1 121709Z 22010KT 33/16 A3002 RMK A01 T03310163  RH  037%=      5-min Rain = 0
KPA1 121710Z 22009KT 33/16 A3002 RMK A01 T03320161  RH  036%=      5-min Rain = 0
KPA1 121711Z 21006KT 33/16 A3002 RMK A01 T03310159  RH  036%=      5-min Rain = 0
KPA1 121712Z 21007KT 33/16 A3002 RMK A01 T03310160  RH  036%=      5-min Rain = 0
KPA1 121713Z 23009KT 33/16 A3002 RMK A01 T03330161  RH  036%=      5-min Rain = 0
KPA1 121714Z 24006KT 33/16 A3002 RMK A01 T03320159  RH  035%=      5-min Rain = 0
KPA1 121715Z 19002KT 33/16 A3002 RMK A01 T03300157  RH  035%=      5-min Rain = 0
KPA1 121716Z 21002KT 33/16 A3002 RMK A01 T03300157  RH  035%=      5-min Rain = 0
KPA1 121717Z 21005KT 33/16 A3002 RMK A01 T03320161  RH  036%=      5-min Rain = 0
KPA1 121718Z 22005KT 33/16 A3002 RMK A01 T03340162  RH  036%=      5-min Rain = 0
KPA1 121719Z 21007KT 34/17 A3002 RMK A01 T03360165  RH  036%=      5-min Rain = 0
KPA1 121720Z 21006KT 34/16 A3002 RMK A01 T03370163  RH  035%=      5-min Rain = 0
KPA1 121721Z 23008KT 34/16 A3002 RMK A01 T03360161  RH  035%=      5-min Rain = 0
KPA1 121722Z 22008KT 34/16 A3002 RMK A01 T03350161  RH  035%=      5-min Rain = 0
KPA1 121723Z 21008KT 34/16 A3002 RMK A01 T03370160  RH  035%=      5-min Rain = 0
KPA1 121724Z 23007KT 34/16 A3002 RMK A01 T03370162  RH  035%=      5-min Rain = 0
KPA1 121725Z 22006KT 34/16 A3002 RMK A01 T03370159  RH  035%=      5-min Rain = 0
KPA1 121726Z 21008KT 34/16 A3002 RMK A01 T03370162  RH  035%=      5-min Rain = 0
KPA1 121727Z 22006KT 34/16 A3002 RMK A01 T03360162  RH  035%=      5-min Rain = 0
KPA1 121728Z 21006KT 34/16 A3002 RMK A01 T03360162  RH  035%=      5-min Rain = 0
KPA1 121729Z 23008KT 34/16 A3002 RMK A01 T03370162  RH  035%=      5-min Rain = 0
KPA1 121730Z 24006KT 34/16 A3002 RMK A01 T03370160  RH  035%=      5-min Rain = 0
KPA1 121731Z 26008KT 34/16 A3002 RMK A01 T03380160  RH  035%=      5-min Rain = 0
KPA1 121732Z 26007KT 34/16 A3002 RMK A01 T03380159  RH  034%=      5-min Rain = 0
KPA1 121733Z 25009KT 34/16 A3002 RMK A01 T03380158  RH  034%=      5-min Rain = 0
KPA1 121734Z 24007KT 34/16 A3002 RMK A01 T03360159  RH  035%=      5-min Rain = 0
KPA1 121735Z 25006KT 34/16 A3002 RMK A01 T03360156  RH  034%=      5-min Rain = 0
KPA1 121736Z 23011KT 34/16 A3002 RMK A01 T03350159  RH  035%=      5-min Rain = 0
KPA1 121737Z 24010KT 34/16 A3001 RMK A01 T03360160  RH  035%=      5-min Rain = 0
KPA1 121738Z 24011KT 34/16 A3002 RMK A01 T03390160  RH  034%=      5-min Rain = 0
KPA1 121739Z 23008KT 34/16 A3002 RMK A01 T03380157  RH  034%=      5-min Rain = 0
KPA1 121740Z 25007KT 34/16 A3002 RMK A01 T03360157  RH  034%=      5-min Rain = 0
KPA1 121741Z 24006KT 34/16 A3002 RMK A01 T03370160  RH  035%=      5-min Rain = 0
KPA1 121742Z 24006KT 34/16 A3002 RMK A01 T03420161  RH  034%=      5-min Rain = 0
KPA1 121743Z 23004KT 34/16 A3001 RMK A01 T03400159  RH  034%=      5-min Rain = 0
KPA1 121744Z 22006KT 34/16 A3001 RMK A01 T03420162  RH  034%=      5-min Rain = 0
KPA1 121745Z 23003KT 34/16 A3001 RMK A01 T03430160  RH  033%=      5-min Rain = 0
KPA1 121746Z 24005KT 34/16 A3001 RMK A01 T03410158  RH  033%=      5-min Rain = 0
KPA1 121747Z 24006KT 34/16 A3001 RMK A01 T03390160  RH  034%=      5-min Rain = 0
KPA1 121748Z 23006KT 34/16 A3001 RMK A01 T03390161  RH  034%=      5-min Rain = 0
KPA1 121749Z 22008KT 34/16 A3001 RMK A01 T03420164  RH  035%=      5-min Rain = 0
KPA1 121750Z 22007KT 35/17 A3001 RMK A01 T03450165  RH  034%=      5-min Rain = 0
KPA1 121751Z 20004KT 35/16 A3001 RMK A01 T03460161  RH  033%=      5-min Rain = 0
KPA1 121752Z 21005KT 35/16 A3001 RMK A01 T03450160  RH  033%=      5-min Rain = 0
KPA1 121753Z 19003KT 34/16 A3001 RMK A01 T03410157  RH  033%=      5-min Rain = 0
KPA1 121754Z 24004KT 34/16 A3001 RMK A01 T03410163  RH  035%=      5-min Rain = 0
KPA1 121755Z 25005KT 34/16 A3001 RMK A01 T03440161  RH  034%=      5-min Rain = 0
KPA1 121756Z 25005KT 34/16 A3001 RMK A01 T03430157  RH  033%=      5-min Rain = 0
KPA1 121757Z 24006KT 34/16 A3001 RMK A01 T03410158  RH  034%=      5-min Rain = 0
KPA1 121758Z 22007KT 34/16 A3001 RMK A01 T03420162  RH  034%=      5-min Rain = 0
KPA1 121759Z 23006KT 34/16 A3001 RMK A01 T03420160  RH  034%=      5-min Rain = 0
KPA1 121800Z 23003KT 34/16 A3001 RMK A01 T03410157  RH  033%=      5-min Rain = 0
KPA1 121801Z 25007G12KT 34/16 A3001 RMK A01 T03420159  RH  034%=      5-min Rain = 0
KPA1 121802Z 28008KT 35/16 A3001 RMK A01 T03450162  RH  034%=      5-min Rain = 0
KPA1 121803Z 28007KT 35/17 A3001 RMK A01 T03460166  RH  034%=      5-min Rain = 0
KPA1 121804Z 28008KT 35/16 A3001 RMK A01 T03460164  RH  034%=      5-min Rain = 0
KPA1 121805Z 28008KT 34/16 A3001 RMK A01 T03440162  RH  034%=      5-min Rain = 0
KPA1 121806Z 28008KT 34/16 A3001 RMK A01 T03430161  RH  034%=      5-min Rain = 0
KPA1 121807Z 28006KT 34/16 A3001 RMK A01 T03430163  RH  034%=      5-min Rain = 0
KPA1 121808Z 29007KT 35/16 A3001 RMK A01 T03460163  RH  034%=      5-min Rain = 0
KPA1 121809Z 30006KT 35/16 A3001 RMK A01 T03450162  RH  034%=      5-min Rain = 0
KPA1 121810Z 29007KT 34/16 A3001 RMK A01 T03440162  RH  034%=      5-min Rain = 0
KPA1 121811Z 26008KT 34/16 A3001 RMK A01 T03430159  RH  033%=      5-min Rain = 0
KPA1 121812Z 22005KT 35/16 A3001 RMK A01 T03450159  RH  033%=      5-min Rain = 0
KPA1 121813Z 25007KT 35/16 A3001 RMK A01 T03470161  RH  033%=      5-min Rain = 0
KPA1 121814Z 26006KT 35/16 A3001 RMK A01 T03480160  RH  033%=      5-min Rain = 0
KPA1 121815Z 26004KT 35/16 A3001 RMK A01 T03460158  RH  033%=      5-min Rain = 0
KPA1 121816Z 23004KT 35/16 A3001 RMK A01 T03470163  RH  033%=      5-min Rain = 0
KPA1 121817Z 24004KT 35/16 A3001 RMK A01 T03490161  RH  033%=      5-min Rain = 0
KPA1 121818Z 27004KT 35/16 A3001 RMK A01 T03490163  RH  033%=      5-min Rain = 0
KPA1 121819Z 28005KT 35/17 A3001 RMK A01 T03480167  RH  034%=      5-min Rain = 0
KPA1 121820Z 25006KT 35/16 A3001 RMK A01 T03480164  RH  034%=      5-min Rain = 0
KPA1 121821Z 26009KT 35/16 A3001 RMK A01 T03490162  RH  033%=      5-min Rain = 0
KPA1 121822Z 25008KT 35/16 A3001 RMK A01 T03510158  RH  032%=      5-min Rain = 0
KPA1 121823Z 25005KT 35/16 A3001 RMK A01 T03470156  RH  032%=      5-min Rain = 0
KPA1 121824Z 28005KT 35/16 A3001 RMK A01 T03450157  RH  033%=      5-min Rain = 0
KPA1 121825Z 29005KT 35/16 A30 RMK A01 T03470156  RH  032%=      5-min Rain = 0
KPA1 121826Z 29003KT 35/16 A30 RMK A01 T03460156  RH  032%=      5-min Rain = 0
KPA1 121827Z 31003KT 35/16 A30 RMK A01 T03450156  RH  032%=      5-min Rain = 0
KPA1 121828Z 30004KT 35/16 A30 RMK A01 T03460160  RH  033%=      5-min Rain = 0
KPA1 121829Z 25006KT 35/16 A30 RMK A01 T03480157  RH  032%=      5-min Rain = 0
KPA1 121830Z 25006KT 35/16 A30 RMK A01 T03470160  RH  033%=      5-min Rain = 0
KPA1 121831Z 26004KT 35/16 A30 RMK A01 T03490160  RH  032%=      5-min Rain = 0
KPA1 121832Z 26003KT 35/16 A30 RMK A01 T03500160  RH  032%=      5-min Rain = 0
KPA1 121833Z 19005KT 35/16 A30 RMK A01 T03510161  RH  032%=      5-min Rain = 0
KPA1 121834Z 19008KT 35/16 A30 RMK A01 T03520156  RH  031%=      5-min Rain = 0
KPA1 121835Z 19005KT 35/15 A30 RMK A01 T03520154  RH  031%=      5-min Rain = 0
KPA1 121836Z 19004KT 35/15 A30 RMK A01 T03500154  RH  031%=      5-min Rain = 0
KPA1 121837Z 21003KT 35/15 A30 RMK A01 T03510154  RH  031%=      5-min Rain = 0
KPA1 121838Z 22002KT 35/15 A30 RMK A01 T03520154  RH  031%=      5-min Rain = 0
KPA1 121839Z 23002KT 35/15 A30 RMK A01 T03520154  RH  031%=      5-min Rain = 0
KPA1 121840Z 23002KT 35/16 A30 RMK A01 T03510155  RH  031%=      5-min Rain = 0
KPA1 121841Z 22001KT 35/16 A30 RMK A01 T03540156  RH  031%=      5-min Rain = 0
KPA1 121842Z 22003KT 36/16 A30 RMK A01 T03580161  RH  031%=      5-min Rain = 0
KPA1 121843Z 27006KT 36/17 A30 RMK A01 T03620168  RH  032%=      5-min Rain = 0
KPA1 121844Z 29005KT 36/17 A30 RMK A01 T03590171  RH  033%=      5-min Rain = 0
KPA1 121845Z 29004KT 36/17 A30 RMK A01 T03570170  RH  033%=      5-min Rain = 0
KPA1 121846Z 25005KT 36/16 A30 RMK A01 T03550163  RH  032%=      5-min Rain = 0
KPA1 121847Z 20004KT 35/16 A30 RMK A01 T03520158  RH  031%=      5-min Rain = 0
KPA1 121848Z 17002KT 35/16 A30 RMK A01 T03540159  RH  031%=      5-min Rain = 0
KPA1 121849Z 15004KT 36/16 A2999 RMK A01 T03550155  RH  030%=      5-min Rain = 0
KPA1 121850Z 16008KT 36/15 A2999 RMK A01 T03570154  RH  030%=      5-min Rain = 0
KPA1 121851Z 16007KT 36/15 A2999 RMK A01 T03600152  RH  029%=      5-min Rain = 0
KPA1 121852Z 17007KT 36/15 A2999 RMK A01 T03620153  RH  029%=      5-min Rain = 0
KPA1 121853Z 16008KT 36/15 A2999 RMK A01 T03640154  RH  029%=      5-min Rain = 0
KPA1 121854Z 15007KT 37/15 A2999 RMK A01 T03660153  RH  028%=      5-min Rain = 0
KPA1 121855Z 15006KT 37/15 A2999 RMK A01 T03650151  RH  028%=      5-min Rain = 0
KPA1 121856Z 18007KT 36/15 A2999 RMK A01 T03610151  RH  029%=      5-min Rain = 0
KPA1 121857Z 19008KT 36/15 A2999 RMK A01 T03580153  RH  029%=      5-min Rain = 0
KPA1 121858Z 17007KT 36/15 A2999 RMK A01 T03550150  RH  029%=      5-min Rain = 0
KPA1 121859Z 16004KT 35/15 A2999 RMK A01 T03540149  RH  029%=      5-min Rain = 0
KPA1 121900Z 11001KT 35/15 A2999 RMK A01 T03540149  RH  029%=      5-min Rain = 0
KPA1 121901Z 16002KT 36/15 A2999 RMK A01 T03550150  RH  029%=      5-min Rain = 0
KPA1 121902Z 13002KT 36/15 A2999 RMK A01 T03570150  RH  029%=      5-min Rain = 0
KPA1 121903Z 20004KT 36/15 A2999 RMK A01 T03580154  RH  030%=      5-min Rain = 0
KPA1 121904Z 19004KT 36/16 A2999 RMK A01 T03610155  RH  029%=      5-min Rain = 0
KPA1 121905Z 21004KT 36/15 A2999 RMK A01 T03620153  RH  029%=      5-min Rain = 0
KPA1 121906Z 20005KT 36/15 A2999 RMK A01 T03580151  RH  029%=      5-min Rain = 0
KPA1 121907Z 18005KT 35/15 A2998 RMK A01 T03540151  RH  030%=      5-min Rain = 0
KPA1 121908Z 18005KT 35/15 A2998 RMK A01 T03510151  RH  030%=      5-min Rain = 0
KPA1 121909Z 13003KT 35/15 A2998 RMK A01 T03500150  RH  030%=      5-min Rain = 0
KPA1 121910Z 13004KT 35/15 A2998 RMK A01 T03490150  RH  031%=      5-min Rain = 0
KPA1 121911Z 12004KT 35/15 A2998 RMK A01 T03480151  RH  031%=      5-min Rain = 0
KPA1 121912Z 19010G16KT 35/16 A2998 RMK A01 T03490157  RH  032%=      5-min Rain = 0
KPA1 121913Z 21012KT 35/17 A2998 RMK A01 T03540169  RH  033%=      5-min Rain = 0
KPA1 121914Z 21008KT 35/17 A2998 RMK A01 T03540168  RH  033%=      5-min Rain = 0
KPA1 121915Z 23006KT 35/16 A2998 RMK A01 T03530164  RH  033%=      5-min Rain = 0
KPA1 121916Z 24005KT 36/17 A2998 RMK A01 T03550165  RH  032%=      5-min Rain = 0
KPA1 121917Z 25006KT 36/16 A2998 RMK A01 T03610162  RH  031%=      5-min Rain = 0
KPA1 121918Z 21007KT 36/16 A2998 RMK A01 T03620158  RH  030%=      5-min Rain = 0
KPA1 121919Z 12004KT 36/16 A2998 RMK A01 T03620160  RH  030%=      5-min Rain = 0
KPA1 121920Z 10006KT 37/16 A2998 RMK A01 T03650159  RH  029%=      5-min Rain = 0
KPA1 121921Z 12006KT 37/16 A2998 RMK A01 T03650155  RH  029%=      5-min Rain = 0
KPA1 121922Z 17008KT 37/15 A2998 RMK A01 T03670154  RH  028%=      5-min Rain = 0
KPA1 121923Z 16005KT 37/15 A2998 RMK A01 T03680150  RH  027%=      5-min Rain = 0
KPA1 121924Z 20006KT 37/16 A2998 RMK A01 T03680159  RH  029%=      5-min Rain = 0
KPA1 121925Z 21005KT 37/16 A2998 RMK A01 T03680162  RH  030%=      5-min Rain = 0
KPA1 121926Z 21006KT 36/16 A2998 RMK A01 T03630162  RH  030%=      5-min Rain = 0
KPA1 121927Z 22005KT 36/16 A2998 RMK A01 T03590156  RH  030%=      5-min Rain = 0
KPA1 121928Z 24002KT 35/15 A2998 RMK A01 T03530150  RH  030%=      5-min Rain = 0
KPA1 121929Z 20002KT 35/15 A2998 RMK A01 T03520149  RH  030%=      5-min Rain = 0
KPA1 121930Z 21004KT 35/15 A2998 RMK A01 T03520152  RH  030%=      5-min Rain = 0
KPA1 121931Z 22006KT 35/16 A2998 RMK A01 T03510157  RH  032%=      5-min Rain = 0
KPA1 121932Z 21004KT 36/15 A2998 RMK A01 T03550153  RH  030%=      5-min Rain = 0
KPA1 121933Z 22001KT 36/15 A2998 RMK A01 T03580147  RH  028%=      5-min Rain = 0
KPA1 121934Z 27000KT 36/15 A2998 RMK A01 T03600152  RH  029%=      5-min Rain = 0
KPA1 121935Z 35001KT 36/15 A2997 RMK A01 T03640153  RH  029%=      5-min Rain = 0
KPA1 121936Z 01000KT 37/15 A2998 RMK A01 T03660151  RH  028%=      5-min Rain = 0
KPA1 121937Z 13004KT 37/15 A2998 RMK A01 T03670154  RH  028%=      5-min Rain = 0
KPA1 121938Z 13004KT 37/15 A2998 RMK A01 T03690152  RH  028%=      5-min Rain = 0
KPA1 121939Z 13003KT 37/15 A2997 RMK A01 T03680154  RH  028%=      5-min Rain = 0
KPA1 121940Z 10006KT 37/15 A2997 RMK A01 T03700153  RH  028%=      5-min Rain = 0
KPA1 121941Z 08008KT 37/15 A2997 RMK A01 T03680153  RH  028%=      5-min Rain = 0
KPA1 121942Z 09009KT 36/15 A2997 RMK A01 T03630154  RH  029%=      5-min Rain = 0
KPA1 121943Z 08008KT 36/15 A2997 RMK A01 T03570154  RH  030%=      5-min Rain = 0
KPA1 121944Z 09007KT 35/16 A2997 RMK A01 T03530156  RH  031%=      5-min Rain = 0
KPA1 121945Z 08007KT 35/15 A2997 RMK A01 T03530153  RH  030%=      5-min Rain = 0
KPA1 121946Z 08006KT 35/15 A2997 RMK A01 T03500152  RH  031%=      5-min Rain = 0
KPA1 121947Z 09006KT 35/16 A2997 RMK A01 T03480162  RH  033%=      5-min Rain = 0
KPA1 121948Z 09006KT 35/16 A2997 RMK A01 T03450164  RH  034%=      5-min Rain = 0
KPA1 121949Z 09005KT 34/16 A2997 RMK A01 T03430155  RH  032%=      5-min Rain = 0
KPA1 121950Z 09005KT 34/16 A2997 RMK A01 T03440158  RH  033%=      5-min Rain = 0
KPA1 121951Z 10005KT 34/16 A2997 RMK A01 T03440160  RH  033%=      5-min Rain = 0
KPA1 121952Z 09004KT 34/16 A2997 RMK A01 T03430163  RH  034%=      5-min Rain = 0
KPA1 121953Z 10004KT 34/16 A2997 RMK A01 T03420164  RH  035%=      5-min Rain = 0
KPA1 121954Z 08005KT 34/16 A2997 RMK A01 T03410164  RH  035%=      5-min Rain = 0
KPA1 121955Z 08004KT 34/16 A2997 RMK A01 T03400162  RH  035%=      5-min Rain = 0
KPA1 121956Z 08003KT 34/16 A2997 RMK A01 T03390163  RH  035%=      5-min Rain = 0
KPA1 121957Z 07003KT 34/16 A2997 RMK A01 T03390161  RH  034%=      5-min Rain = 0
KPA1 121958Z 07003KT 34/16 A2997 RMK A01 T03390160  RH  034%=      5-min Rain = 0
KPA1 121959Z 06002KT 34/16 A2997 RMK A01 T03390161  RH  034%=      5-min Rain = 0
KPA1 122000Z 02003KT 34/16 A2996 RMK A01 T03410159  RH  034%=      5-min Rain = 0
KPA1 122001Z 07006KT 34/16 A2996 RMK A01 T03410160  RH  034%=      5-min Rain = 0
KPA1 122002Z 09006KT 34/16 A2996 RMK A01 T03420156  RH  033%=      5-min Rain = 0
KPA1 122003Z 35003KT 34/16 A2996 RMK A01 T03430156  RH  033%=      5-min Rain = 0
KPA1 122004Z 31006KT 34/16 A2996 RMK A01 T03440159  RH  033%=      5-min Rain = 0
KPA1 122005Z 31006KT 34/16 A2996 RMK A01 T03440156  RH  033%=      5-min Rain = 0
KPA1 122006Z 30005KT 34/15 A2996 RMK A01 T03430154  RH  032%=      5-min Rain = 0
KPA1 122007Z 33006KT 34/15 A2996 RMK A01 T03430153  RH  032%=      5-min Rain = 0
KPA1 122008Z 35007G13KT 34/15 A2996 RMK A01 T03430152  RH  032%=      5-min Rain = 0
KPA1 122009Z 31014G20KT 34/16 A2996 RMK A01 T03430159  RH  033%=      5-min Rain = 0
KPA1 122010Z 31015KT 33/16 A2997 RMK A01 T03340158  RH  035%=      5-min Rain = 0
KPA1 122011Z 31013KT 32/16 A2997 RMK A01 T03200158  RH  038%=      5-min Rain = 0
KPA1 122012Z 32011KT 31/16 A2997 RMK A01 T03110159  RH  040%=      5-min Rain = 0
KPA1 122013Z 32008KT 31/16 A2997 RMK A01 T03050162  RH  042%=      5-min Rain = 0
KPA1 122014Z 32009KT 30/16 A2997 RMK A01 T03020164  RH  043%=      5-min Rain = 0
KPA1 122015Z 33008KT 30/17 A2997 RMK A01 T03030165  RH  044%=      5-min Rain = 0
KPA1 122016Z 34008KT 30/17 A2997 RMK A01 T03040167  RH  044%=      5-min Rain = 0
KPA1 122017Z 31009KT 30/17 A2997 RMK A01 T03040168  RH  044%=      5-min Rain = 0
KPA1 122018Z 32014KT 31/17 A2997 RMK A01 T03070168  RH  043%=      5-min Rain = 0
KPA1 122019Z 32010KT 31/17 A2997 RMK A01 T03120168  RH  042%=      5-min Rain = 0
KPA1 122020Z 32010KT 31/17 A2997 RMK A01 T03140166  RH  041%=      5-min Rain = 0
KPA1 122021Z 33012KT 32/17 A2997 RMK A01 T03170165  RH  040%=      5-min Rain = 0
KPA1 122022Z 33012KT 32/17 A2997 RMK A01 T03170167  RH  040%=      5-min Rain = 0
KPA1 122023Z 33013KT 32/17 A2997 RMK A01 T03170166  RH  040%=      5-min Rain = 0
KPA1 122024Z 35016KT 32/17 A2997 RMK A01 T03170172  RH  042%=      5-min Rain = 0
KPA1 122025Z 01019KT 31/18 A2997 RMK A01 T03050176  RH  046%=      5-min Rain = 0
KPA1 122026Z 35010KT 29/18 A2997 RMK A01 T02860178  RH  052%=      5-min Rain = 0
KPA1 122027Z 35015G20KT 28/19 A2997 RMK A01 T02760187  RH  058%=      5-min Rain = 0
KPA1 122028Z 35020G26KT 27/19 A2997 RMK A01 T02680190  RH  062%=      5-min Rain = 0.01
KPA1 122029Z 34019KT 26/19 A2997 RMK A01 T02620187  RH  063%=      5-min Rain = 0
KPA1 122030Z 33016KT 26/18 A2997 RMK A01 T02620181  RH  061%=      5-min Rain = 0
KPA1 122031Z 32015KT 27/18 A2997 RMK A01 T02710180  RH  058%=      5-min Rain = 0
KPA1 122032Z 31015KT 27/18 A2998 RMK A01 T02730184  RH  058%=      5-min Rain = 0
KPA1 122033Z 31018G23KT 27/17 A2998 RMK A01 T02710172  RH  055%=      5-min Rain = 0
KPA1 122034Z 31022KT 27/17 A2999 RMK A01 T02730171  RH  054%=      5-min Rain = 0.03
KPA1 122035Z 30018KT 27/17 A3001 RMK A01 T02690172  RH  055%=      5-min Rain = 0.05
KPA1 122036Z 28021G26KT 26/17 A3002 RMK A01 T02620172  RH  058%=      5-min Rain = 0.07
KPA1 122037Z 28012G19KT 25/17 A3005 RMK A01 T02470170  RH  062%=      5-min Rain = 0.07
KPA1 122038Z 22014G23KT 24/17 A3009 RMK A01 T02380174  RH  067%=      5-min Rain = 0.12
KPA1 122039Z 33011KT 23/16 A3006 RMK A01 T02290155  RH  063%=      5-min Rain = 0.09
KPA1 122040Z 09020G37KT 22/17 A3004 RMK A01 T02210165  RH  070%=      5-min Rain = 0.11
KPA1 122041Z 06040G56KT 21/17 A3002 RMK A01 T02060169  RH  079%=      5-min Rain = 0.09
KPA1 122042Z 05040G47KT 20/18 A2999 RMK A01 T01950176  RH  089%=      5-min Rain = 0.03
KPA1 122043Z 06028G34KT 20/18 A2998 RMK A01 T01960178  RH  089%=      5-min Rain = 0.01
KPA1 122044Z 05027G36KT 20/17 A2997 RMK A01 T02000174  RH  085%=      5-min Rain = 0
KPA1 122045Z 05032G37KT 21/17 A2997 RMK A01 T02060168  RH  079%=      5-min Rain = 0
KPA1 122046Z 05026KT 21/16 A2998 RMK A01 T02110160  RH  073%=      5-min Rain = 0.01
KPA1 122047Z 05020G26KT 22/16 A2998 RMK A01 T02180159  RH  069%=      5-min Rain = 0.01
KPA1 122048Z 05022G27KT 22/17 A2997 RMK A01 T02200165  RH  071%=      5-min Rain = 0
KPA1 122049Z 06021KT 22/17 A2996 RMK A01 T02160170  RH  075%=      5-min Rain = 0.01
KPA1 122050Z 07021G27KT 21/17 A2996 RMK A01 T02140174  RH  078%=      5-min Rain = 0.01
KPA1 122051Z 05028G33KT 22/18 A2996 RMK A01 T02210175  RH  075%=      5-min Rain = 0
KPA1 122052Z 05019G30KT 22/18 A2996 RMK A01 T02230175  RH  074%=      5-min Rain = 0
KPA1 122053Z 07011G20KT 23/18 A2996 RMK A01 T02260176  RH  073%=      5-min Rain = 0
KPA1 122054Z 09016G22KT 23/18 A2996 RMK A01 T02340175  RH  070%=      5-min Rain = 0
KPA1 122055Z 08020KT 24/18 A2997 RMK A01 T02430178  RH  067%=      5-min Rain = 0
KPA1 122056Z 07023KT 24/18 A2997 RMK A01 T02420181  RH  068%=      5-min Rain = 0
KPA1 122057Z 07020KT 24/18 A2997 RMK A01 T02380180  RH  070%=      5-min Rain = 0
KPA1 122058Z 07020KT 23/18 A2998 RMK A01 T02340180  RH  072%=      5-min Rain = 0
KPA1 122059Z 07016KT 23/18 A2998 RMK A01 T02340178  RH  071%=      5-min Rain = 0
KPA1 122100Z 08014G19KT 23/18 A2998 RMK A01 T02340181  RH  072%=      5-min Rain = 0
KPA1 122101Z 09017G28KT 23/18 A2997 RMK A01 T02330182  RH  073%=      5-min Rain = 0
KPA1 122102Z 08020G26KT 23/18 A2997 RMK A01 T02330178  RH  072%=      5-min Rain = 0
KPA1 122103Z 07024KT 23/18 A2997 RMK A01 T02330177  RH  071%=      5-min Rain = 0
KPA1 122104Z 07018G23KT 23/18 A2997 RMK A01 T02320176  RH  071%=      5-min Rain = 0
KPA1 122105Z 07017KT 23/17 A2997 RMK A01 T02300173  RH  070%=      5-min Rain = 0
KPA1 122106Z 07015KT 23/17 A2997 RMK A01 T02290173  RH  071%=      5-min Rain = 0
KPA1 122107Z 08017KT 23/17 A2997 RMK A01 T02270173  RH  072%=      5-min Rain = 0
KPA1 122108Z 08017KT 23/17 A2997 RMK A01 T02270171  RH  071%=      5-min Rain = 0
KPA1 122109Z 08014KT 23/17 A2997 RMK A01 T02310171  RH  069%=      5-min Rain = 0
KPA1 122110Z 08013KT 23/18 A2997 RMK A01 T02320175  RH  070%=      5-min Rain = 0
KPA1 122111Z 09013KT 23/18 A2997 RMK A01 T02330175  RH  070%=      5-min Rain = 0
KPA1 122112Z 09013KT 24/18 A2997 RMK A01 T02350176  RH  070%=      5-min Rain = 0
KPA1 122113Z 08011KT 23/18 A2997 RMK A01 T02340177  RH  071%=      5-min Rain = 0
KPA1 122114Z 07009KT 23/18 A2996 RMK A01 T02300178  RH  072%=      5-min Rain = 0
KPA1 122115Z 07008KT 23/18 A2996 RMK A01 T02260179  RH  075%=      5-min Rain = 0
KPA1 122116Z 06010KT 22/18 A2996 RMK A01 T02240177  RH  075%=      5-min Rain = 0
KPA1 122117Z 06012KT 22/17 A2996 RMK A01 T02240170  RH  071%=      5-min Rain = 0
KPA1 122118Z 06012KT 23/17 A2996 RMK A01 T02260170  RH  070%=      5-min Rain = 0
KPA1 122119Z 06012KT 23/17 A2996 RMK A01 T02290166  RH  068%=      5-min Rain = 0
KPA1 122120Z 06010KT 23/17 A2996 RMK A01 T02320168  RH  067%=      5-min Rain = 0
KPA1 122121Z 05008KT 23/17 A2996 RMK A01 T02330170  RH  068%=      5-min Rain = 0
KPA1 122122Z 05007KT 23/17 A2996 RMK A01 T02330172  RH  068%=      5-min Rain = 0
KPA1 122123Z 06008KT 23/17 A2996 RMK A01 T02330171  RH  068%=      5-min Rain = 0
KPA1 122124Z 05008KT 23/17 A2996 RMK A01 T02340173  RH  069%=      5-min Rain = 0
KPA1 122125Z 05007KT 24/17 A2996 RMK A01 T02350173  RH  068%=      5-min Rain = 0
KPA1 122126Z 05008KT 24/18 A2996 RMK A01 T02360175  RH  068%=      5-min Rain = 0
KPA1 122127Z 07012KT 24/18 A2996 RMK A01 T02370177  RH  069%=      5-min Rain = 0
KPA1 122128Z 07013KT 24/18 A2996 RMK A01 T02400177  RH  068%=      5-min Rain = 0
KPA1 122129Z 06014KT 24/18 A2996 RMK A01 T02430178  RH  067%=      5-min Rain = 0
KPA1 122130Z 06014KT 24/18 A2996 RMK A01 T02430177  RH  066%=      5-min Rain = 0
KPA1 122131Z 07013KT 24/18 A2996 RMK A01 T02440179  RH  067%=      5-min Rain = 0
KPA1 122132Z 06011KT 24/18 A2996 RMK A01 T02430179  RH  067%=      5-min Rain = 0
KPA1 122133Z 07008KT 24/18 A2996 RMK A01 T02420181  RH  068%=      5-min Rain = 0
KPA1 122134Z 07008KT 24/18 A2996 RMK A01 T02420183  RH  070%=      5-min Rain = 0
KPA1 122135Z 08007KT 24/18 A2997 RMK A01 T02400184  RH  071%=      5-min Rain = 0
KPA1 122136Z 09006KT 24/19 A2997 RMK A01 T02400185  RH  071%=      5-min Rain = 0.01
KPA1 122137Z 09006KT 24/19 A2997 RMK A01 T02390187  RH  073%=      5-min Rain = 0.01
KPA1 122138Z 08009KT 24/19 A2997 RMK A01 T02370187  RH  073%=      5-min Rain = 0.01
KPA1 122139Z 08010KT 24/19 A2996 RMK A01 T02350189  RH  075%=      5-min Rain = 0.01
KPA1 122140Z 06011KT 23/19 A2996 RMK A01 T02320190  RH  077%=      5-min Rain = 0
KPA1 122141Z 05009KT 23/19 A2996 RMK A01 T02300188  RH  077%=      5-min Rain = 0
KPA1 122142Z 04011KT 23/18 A2996 RMK A01 T02310182  RH  074%=      5-min Rain = 0
KPA1 122143Z 05011KT 24/18 A2996 RMK A01 T02350182  RH  072%=      5-min Rain = 0
KPA1 122144Z 05012KT 24/18 A2996 RMK A01 T02370183  RH  072%=      5-min Rain = 0
KPA1 122145Z 05011KT 24/19 A2996 RMK A01 T02360185  RH  073%=      5-min Rain = 0
KPA1 122146Z 05009KT 24/18 A2996 RMK A01 T02360183  RH  072%=      5-min Rain = 0
KPA1 122147Z 04009KT 24/18 A2996 RMK A01 T02380184  RH  072%=      5-min Rain = 0
KPA1 122148Z 03007KT 24/19 A2996 RMK A01 T02390188  RH  073%=      5-min Rain = 0
KPA1 122149Z 03006KT 24/19 A2996 RMK A01 T02380190  RH  075%=      5-min Rain = 0
KPA1 122150Z 03005KT 24/19 A2996 RMK A01 T02380192  RH  075%=      5-min Rain = 0
KPA1 122151Z 07004KT 24/20 A2996 RMK A01 T02370195  RH  077%=      5-min Rain = 0
KPA1 122152Z 08006KT 24/20 A2996 RMK A01 T02360196  RH  078%=      5-min Rain = 0
KPA1 122153Z 08007KT 24/20 A2996 RMK A01 T02350195  RH  078%=      5-min Rain = 0
KPA1 122154Z 08007KT 24/19 A2996 RMK A01 T02350193  RH  077%=      5-min Rain = 0
KPA1 122155Z 08007KT 24/19 A2996 RMK A01 T02370194  RH  077%=      5-min Rain = 0
KPA1 122156Z 08008KT 24/19 A2996 RMK A01 T02380194  RH  076%=      5-min Rain = 0
KPA1 122157Z 07010KT 24/20 A2995 RMK A01 T02400196  RH  076%=      5-min Rain = 0
KPA1 122158Z 07011KT 24/19 A2995 RMK A01 T02410194  RH  075%=      5-min Rain = 0
KPA1 122159Z 07011KT 24/19 A2995 RMK A01 T02420192  RH  073%=      5-min Rain = 0
KPA1 122200Z 07013KT 24/19 A2995 RMK A01 T02430189  RH  072%=      5-min Rain = 0
KPA1 122201Z 08012KT 24/19 A2995 RMK A01 T02440187  RH  070%=      5-min Rain = 0
KPA1 122202Z 08010KT 25/19 A2995 RMK A01 T02460187  RH  070%=      5-min Rain = 0
KPA1 122203Z 09009KT 25/19 A2996 RMK A01 T02460190  RH  071%=      5-min Rain = 0
KPA1 122204Z 09009G14KT 25/19 A2996 RMK A01 T02450191  RH  072%=      5-min Rain = 0
KPA1 122205Z 09010KT 24/19 A2996 RMK A01 T02440190  RH  072%=      5-min Rain = 0
KPA1 122206Z 09010KT 24/19 A2996 RMK A01 T02440190  RH  072%=      5-min Rain = 0
KPA1 122207Z 09010KT 24/19 A2996 RMK A01 T02430191  RH  073%=      5-min Rain = 0
KPA1 122208Z 09010KT 24/19 A2996 RMK A01 T02420194  RH  075%=      5-min Rain = 0
KPA1 122209Z 08009KT 24/19 A2996 RMK A01 T02410194  RH  075%=      5-min Rain = 0
KPA1 122210Z 07008KT 24/20 A2996 RMK A01 T02410196  RH  076%=      5-min Rain = 0
KPA1 122211Z 07009KT 24/20 A2996 RMK A01 T02400195  RH  076%=      5-min Rain = 0
KPA1 122212Z 06008KT 24/19 A2995 RMK A01 T02390194  RH  076%=      5-min Rain = 0
KPA1 122213Z 06008KT 24/19 A2995 RMK A01 T02390194  RH  076%=      5-min Rain = 0
KPA1 122214Z 06006KT 24/20 A2996 RMK A01 T02390196  RH  076%=      5-min Rain = 0
KPA1 122215Z 06005KT 24/20 A2996 RMK A01 T02400195  RH  076%=      5-min Rain = 0
KPA1 122216Z 06004KT 24/20 A2996 RMK A01 T02400196  RH  076%=      5-min Rain = 0
KPA1 122217Z 06003KT 24/20 A2996 RMK A01 T02410197  RH  076%=      5-min Rain = 0
KPA1 122218Z 05003KT 24/20 A2996 RMK A01 T02420198  RH  077%=      5-min Rain = 0
KPA1 122219Z 05005KT 24/20 A2996 RMK A01 T02430196  RH  075%=      5-min Rain = 0
KPA1 122220Z 04006KT 24/20 A2996 RMK A01 T02440199  RH  076%=      5-min Rain = 0
KPA1 122221Z 05006KT 25/20 A2996 RMK A01 T02450199  RH  076%=      5-min Rain = 0
KPA1 122222Z 05006KT 25/20 A2996 RMK A01 T02450202  RH  077%=      5-min Rain = 0
KPA1 122223Z 05007KT 25/21 A2996 RMK A01 T02450205  RH  079%=      5-min Rain = 0
KPA1 122224Z 05009KT 24/20 A2995 RMK A01 T02430203  RH  078%=      5-min Rain = 0
KPA1 122225Z 04009KT 24/20 A2995 RMK A01 T02420202  RH  078%=      5-min Rain = 0
KPA1 122226Z 03009KT 24/20 A2995 RMK A01 T02420201  RH  078%=      5-min Rain = 0
KPA1 122227Z 03009KT 24/20 A2995 RMK A01 T02420199  RH  077%=      5-min Rain = 0
KPA1 122228Z 04009KT 24/20 A2995 RMK A01 T02420197  RH  076%=      5-min Rain = 0
KPA1 122229Z 04009KT 24/20 A2995 RMK A01 T02440197  RH  075%=      5-min Rain = 0
KPA1 122230Z 05010KT 25/20 A2995 RMK A01 T02450199  RH  075%=      5-min Rain = 0
KPA1 122231Z 05010KT 25/20 A2995 RMK A01 T02450197  RH  075%=      5-min Rain = 0
KPA1 122232Z 05010KT 25/20 A2995 RMK A01 T02450198  RH  075%=      5-min Rain = 0
KPA1 122233Z 06009KT 25/20 A2995 RMK A01 T02450197  RH  075%=      5-min Rain = 0
KPA1 122234Z 06009KT 25/20 A2995 RMK A01 T02450199  RH  075%=      5-min Rain = 0
KPA1 122235Z 06009KT 25/20 A2995 RMK A01 T02450200  RH  076%=      5-min Rain = 0
KPA1 122236Z 05009KT 25/20 A2995 RMK A01 T02450200  RH  076%=      5-min Rain = 0
KPA1 122237Z 05009KT 25/20 A2995 RMK A01 T02450199  RH  076%=      5-min Rain = 0
KPA1 122238Z 05009KT 25/20 A2995 RMK A01 T02450195  RH  074%=      5-min Rain = 0
KPA1 122239Z 05008KT 25/20 A2995 RMK A01 T02460197  RH  074%=      5-min Rain = 0
KPA1 122240Z 05008KT 25/20 A2995 RMK A01 T02460199  RH  075%=      5-min Rain = 0
KPA1 122241Z 06008KT 25/20 A2995 RMK A01 T02460199  RH  075%=      5-min Rain = 0
KPA1 122242Z 05007KT 25/20 A2995 RMK A01 T02460199  RH  075%=      5-min Rain = 0
KPA1 122243Z 05008KT 25/20 A2996 RMK A01 T02450199  RH  075%=      5-min Rain = 0
KPA1 122244Z 05008KT 25/20 A2996 RMK A01 T02450200  RH  076%=      5-min Rain = 0
KPA1 122245Z 04007KT 25/20 A2996 RMK A01 T02450201  RH  076%=      5-min Rain = 0
KPA1 122246Z 04007KT 25/20 A2996 RMK A01 T02450202  RH  077%=      5-min Rain = 0
KPA1 122247Z 04008KT 25/20 A2996 RMK A01 T02450203  RH  077%=      5-min Rain = 0
KPA1 122248Z 05009KT 25/20 A2996 RMK A01 T02460201  RH  076%=      5-min Rain = 0
KPA1 122249Z 04009KT 25/20 A2996 RMK A01 T02460199  RH  075%=      5-min Rain = 0
KPA1 122250Z 04009KT 25/20 A2996 RMK A01 T02470201  RH  075%=      5-min Rain = 0
KPA1 122251Z 04009KT 25/20 A2996 RMK A01 T02480199  RH  074%=      5-min Rain = 0
KPA1 122252Z 04007KT 25/20 A2995 RMK A01 T02480200  RH  075%=      5-min Rain = 0
KPA1 122253Z 05007KT 25/20 A2995 RMK A01 T02480199  RH  074%=      5-min Rain = 0
KPA1 122254Z 05007KT 25/20 A2995 RMK A01 T02480198  RH  074%=      5-min Rain = 0
KPA1 122255Z 04007KT 25/20 A2996 RMK A01 T02480199  RH  074%=      5-min Rain = 0
KPA1 122256Z 04007KT 25/20 A2996 RMK A01 T02480199  RH  074%=      5-min Rain = 0
KPA1 122257Z 04007KT 25/20 A2996 RMK A01 T02470200  RH  075%=      5-min Rain = 0
KPA1 122258Z 03007KT 25/20 A2996 RMK A01 T02470202  RH  076%=      5-min Rain = 0
KPA1 122259Z 03008KT 25/20 A2996 RMK A01 T02470204  RH  077%=      5-min Rain = 0
KPA1 122300Z 03008KT 25/20 A2996 RMK A01 T02460204  RH  077%=      5-min Rain = 0
KPA1 122301Z 03008KT 25/20 A2996 RMK A01 T02460203  RH  077%=      5-min Rain = 0
KPA1 122302Z 03008KT 25/20 A2996 RMK A01 T02460202  RH  076%=      5-min Rain = 0
KPA1 122303Z 04006KT 25/20 A2996 RMK A01 T02470203  RH  076%=      5-min Rain = 0
KPA1 122304Z 04006KT 25/21 A2996 RMK A01 T02470205  RH  077%=      5-min Rain = 0
KPA1 122305Z 04005KT 25/20 A2996 RMK A01 T02460204  RH  077%=      5-min Rain = 0
KPA1 122306Z 04004KT 25/21 A2997 RMK A01 T02460205  RH  078%=      5-min Rain = 0
KPA1 122307Z 04002KT 25/20 A2997 RMK A01 T02450203  RH  077%=      5-min Rain = 0
KPA1 122308Z 01003KT 25/20 A2997 RMK A01 T02450204  RH  078%=      5-min Rain = 0
KPA1 122309Z 35004KT 25/20 A2997 RMK A01 T02450202  RH  077%=      5-min Rain = 0
KPA1 122310Z 35006KT 25/20 A2997 RMK A01 T02460199  RH  075%=      5-min Rain = 0.01
KPA1 122311Z 00009KT 25/20 A2997 RMK A01 T02460201  RH  076%=      5-min Rain = 0.02
KPA1 122312Z 02014KT 25/20 A2996 RMK A01 T02450201  RH  076%=      5-min Rain = 0
KPA1 122313Z 02015KT 24/20 A2996 RMK A01 T02420200  RH  077%=      5-min Rain = 0
KPA1 122314Z 03015KT 24/20 A2995 RMK A01 T02400201  RH  079%=      5-min Rain = 0.01
KPA1 122315Z 04015KT 24/20 A2995 RMK A01 T02390201  RH  079%=      5-min Rain = 0
KPA1 122316Z 04014KT 24/20 A2995 RMK A01 T02390201  RH  079%=      5-min Rain = 0
KPA1 122317Z 04011KT 24/20 A2996 RMK A01 T02380202  RH  080%=      5-min Rain = 0
KPA1 122318Z 03009KT 24/20 A2996 RMK A01 T02380201  RH  080%=      5-min Rain = 0
KPA1 122319Z 03009KT 24/20 A2996 RMK A01 T02380203  RH  081%=      5-min Rain = 0
KPA1 122320Z 03010KT 24/20 A2996 RMK A01 T02380200  RH  079%=      5-min Rain = 0
KPA1 122321Z 05007KT 24/20 A2996 RMK A01 T02400197  RH  077%=      5-min Rain = 0
KPA1 122322Z 05007KT 24/20 A2997 RMK A01 T02410201  RH  078%=      5-min Rain = 0
KPA1 122323Z 05007KT 24/21 A2997 RMK A01 T02410205  RH  080%=      5-min Rain = 0
KPA1 122324Z 05008KT 24/21 A2997 RMK A01 T02380206  RH  082%=      5-min Rain = 0
KPA1 122325Z 04010KT 24/21 A2997 RMK A01 T02370206  RH  083%=      5-min Rain = 0
KPA1 122326Z 05010KT 24/20 A2997 RMK A01 T02360204  RH  082%=      5-min Rain = 0
KPA1 122327Z 04011KT 24/20 A2997 RMK A01 T02360202  RH  081%=      5-min Rain = 0
KPA1 122328Z 04010KT 24/20 A2997 RMK A01 T02370201  RH  080%=      5-min Rain = 0
KPA1 122329Z 04010KT 24/20 A2997 RMK A01 T02380202  RH  080%=      5-min Rain = 0
KPA1 122330Z 05010KT 24/20 A2997 RMK A01 T02380201  RH  080%=      5-min Rain = 0
KPA1 122331Z 04009KT 24/20 A2996 RMK A01 T02380201  RH  080%=      5-min Rain = 0
KPA1 122332Z 05010KT 24/20 A2996 RMK A01 T02370202  RH  081%=      5-min Rain = 0
KPA1 122333Z 05009KT 24/20 A2996 RMK A01 T02370202  RH  081%=      5-min Rain = 0
KPA1 122334Z 05010KT 24/20 A2996 RMK A01 T02360203  RH  081%=      5-min Rain = 0
KPA1 122335Z 06010KT 24/20 A2996 RMK A01 T02360201  RH  081%=      5-min Rain = 0
KPA1 122336Z 06010KT 24/20 A2996 RMK A01 T02360199  RH  080%=      5-min Rain = 0
KPA1 122337Z 05010KT 24/20 A2995 RMK A01 T02370199  RH  079%=      5-min Rain = 0
KPA1 122338Z 05010KT 24/20 A2995 RMK A01 T02380197  RH  078%=      5-min Rain = 0
KPA1 122339Z 05009KT 24/20 A2995 RMK A01 T02380198  RH  078%=      5-min Rain = 0
KPA1 122340Z 05009KT 24/20 A2995 RMK A01 T02390199  RH  078%=      5-min Rain = 0
KPA1 122341Z 04010KT 24/20 A2995 RMK A01 T02390198  RH  078%=      5-min Rain = 0
KPA1 122342Z 03008KT 24/20 A2995 RMK A01 T02380198  RH  078%=      5-min Rain = 0
KPA1 122343Z 02009KT 24/20 A2995 RMK A01 T02380198  RH  078%=      5-min Rain = 0
KPA1 122344Z 01011KT 24/20 A2994 RMK A01 T02390200  RH  079%=      5-min Rain = 0
KPA1 122345Z 01011KT 24/20 A2994 RMK A01 T02390199  RH  078%=      5-min Rain = 0
KPA1 122346Z 02010KT 24/20 A2994 RMK A01 T02400197  RH  077%=      5-min Rain = 0
KPA1 122347Z 01010KT 24/20 A2995 RMK A01 T02410197  RH  076%=      5-min Rain = 0
KPA1 122348Z 02010KT 24/20 A2995 RMK A01 T02420198  RH  076%=      5-min Rain = 0
KPA1 122349Z 02009KT 24/20 A2995 RMK A01 T02430196  RH  075%=      5-min Rain = 0
KPA1 122350Z 02009KT 24/19 A2995 RMK A01 T02440194  RH  074%=      5-min Rain = 0
KPA1 122351Z 02009KT 25/19 A2995 RMK A01 T02460193  RH  072%=      5-min Rain = 0
KPA1 122352Z 02010KT 25/19 A2995 RMK A01 T02480193  RH  071%=      5-min Rain = 0
KPA1 122353Z 03010KT 25/19 A2995 RMK A01 T02490194  RH  072%=      5-min Rain = 0
KPA1 122354Z 03010KT 25/19 A2995 RMK A01 T02490194  RH  072%=      5-min Rain = 0
KPA1 122355Z 03009KT 25/19 A2995 RMK A01 T02490194  RH  072%=      5-min Rain = 0
KPA1 122356Z 03009KT 25/19 A2995 RMK A01 T02480194  RH  072%=      5-min Rain = 0
KPA1 122357Z 04008KT 25/19 A2995 RMK A01 T02480193  RH  071%=      5-min Rain = 0
KPA1 122358Z 04007KT 25/19 A2995 RMK A01 T02470194  RH  072%=      5-min Rain = 0
KPA1 122359Z 05006KT 25/20 A2995 RMK A01 T02470195  RH  073%=      5-min Rain = 0
KPA1 130000Z 05005KT 25/20 A2996 RMK A01 T02450195  RH  073%=      5-min Rain = 0
KPA1 130001Z 05005KT 25/19 A2996 RMK A01 T02450194  RH  073%=      5-min Rain = 0
KPA1 130002Z 05004KT 24/19 A2996 RMK A01 T02440193  RH  073%=      5-min Rain = 0
KPA1 130003Z 05004KT 25/19 A2996 RMK A01 T02450194  RH  073%=      5-min Rain = 0
KPA1 130004Z 05003KT 25/19 A2996 RMK A01 T02450194  RH  073%=      5-min Rain = 0
KPA1 130005Z 04003KT 24/19 A2997 RMK A01 T02440194  RH  074%=      5-min Rain = 0
KPA1 130006Z 03005KT 25/20 A2996 RMK A01 T02450196  RH  074%=      5-min Rain = 0
KPA1 130007Z 00008KT 24/20 A2996 RMK A01 T02440200  RH  076%=      5-min Rain = 0
KPA1 130008Z 34008KT 24/20 A2996 RMK A01 T02430202  RH  078%=      5-min Rain = 0
KPA1 130009Z 34009KT 24/20 A2996 RMK A01 T02430204  RH  079%=      5-min Rain = 0
KPA1 130010Z 34008KT 24/20 A2996 RMK A01 T02420200  RH  077%=      5-min Rain = 0
KPA1 130011Z 33007KT 24/20 A2996 RMK A01 T02420200  RH  077%=      5-min Rain = 0
KPA1 130012Z 30006KT 24/20 A2997 RMK A01 T02420201  RH  078%=      5-min Rain = 0
KPA1 130013Z 28007KT 24/20 A2997 RMK A01 T02420201  RH  078%=      5-min Rain = 0
KPA1 130014Z 27010KT 24/20 A2998 RMK A01 T02420202  RH  078%=      5-min Rain = 0
KPA1 130015Z 26010KT 24/20 A2998 RMK A01 T02400203  RH  080%=      5-min Rain = 0
KPA1 130016Z 26009KT 24/20 A2998 RMK A01 T02390202  RH  080%=      5-min Rain = 0
KPA1 130017Z 27009KT 24/20 A2998 RMK A01 T02370203  RH  081%=      5-min Rain = 0.01
KPA1 130018Z 28013KT 24/20 A2998 RMK A01 T02370199  RH  079%=      5-min Rain = 0.01
KPA1 130019Z 29016KT 24/20 A2998 RMK A01 T02380198  RH  078%=      5-min Rain = 0.01
KPA1 130020Z 31017KT 24/19 A2998 RMK A01 T02370191  RH  075%=      5-min Rain = 0.01
KPA1 130021Z 34009G14KT 24/18 A2997 RMK A01 T02400180  RH  069%=      5-min Rain = 0
KPA1 130022Z 00007KT 25/18 A2997 RMK A01 T02470184  RH  068%=      5-min Rain = 0.01
KPA1 130023Z 02010KT 25/19 A2996 RMK A01 T02470186  RH  069%=      5-min Rain = 0
KPA1 130024Z 03009KT 25/18 A2996 RMK A01 T02470175  RH  064%=      5-min Rain = 0
KPA1 130025Z 02007KT 26/17 A2996 RMK A01 T02550170  RH  059%=      5-min Rain = 0
KPA1 130026Z 02006KT 26/17 A2996 RMK A01 T02610170  RH  058%=      5-min Rain = 0
KPA1 130027Z 03006KT 26/17 A2996 RMK A01 T02630171  RH  057%=      5-min Rain = 0
KPA1 130028Z 04007KT 26/18 A2996 RMK A01 T02630177  RH  059%=      5-min Rain = 0
KPA1 130029Z 05006KT 26/19 A2996 RMK A01 T02580185  RH  064%=      5-min Rain = 0
KPA1 130030Z 05007KT 25/19 A2996 RMK A01 T02500191  RH  070%=      5-min Rain = 0
KPA1 130031Z 05006KT 24/19 A2996 RMK A01 T02430193  RH  074%=      5-min Rain = 0
KPA1 130032Z 04006KT 24/20 A2996 RMK A01 T02380195  RH  077%=      5-min Rain = 0
KPA1 130033Z 05008KT 24/19 A2996 RMK A01 T02360194  RH  077%=      5-min Rain = 0
KPA1 130034Z 03008KT 24/20 A2996 RMK A01 T02350196  RH  078%=      5-min Rain = 0
KPA1 130035Z 03009KT 24/20 A2996 RMK A01 T02350198  RH  080%=      5-min Rain = 0
KPA1 130036Z 02008KT 23/20 A2996 RMK A01 T02340199  RH  080%=      5-min Rain = 0
KPA1 130037Z 02009KT 23/20 A2996 RMK A01 T02340201  RH  082%=      5-min Rain = 0
KPA1 130038Z 03010KT 23/20 A2995 RMK A01 T02330201  RH  082%=      5-min Rain = 0
KPA1 130039Z 03010KT 23/20 A2995 RMK A01 T02340201  RH  081%=      5-min Rain = 0
KPA1 130040Z 03011KT 24/20 A2995 RMK A01 T02360202  RH  081%=      5-min Rain = 0
KPA1 130041Z 04012KT 24/20 A2995 RMK A01 T02360203  RH  082%=      5-min Rain = 0
KPA1 130042Z 04012KT 24/20 A2994 RMK A01 T02360201  RH  081%=      5-min Rain = 0
KPA1 130043Z 04013KT 24/20 A2994 RMK A01 T02360196  RH  078%=      5-min Rain = 0
KPA1 130044Z 04012KT 24/19 A2994 RMK A01 T02370194  RH  077%=      5-min Rain = 0
KPA1 130045Z 04012KT 24/19 A2994 RMK A01 T02380193  RH  076%=      5-min Rain = 0
KPA1 130046Z 04011KT 24/19 A2995 RMK A01 T02380194  RH  076%=      5-min Rain = 0
KPA1 130047Z 04010KT 24/19 A2995 RMK A01 T02390191  RH  075%=      5-min Rain = 0
KPA1 130048Z 04009KT 24/19 A2995 RMK A01 T02400190  RH  074%=      5-min Rain = 0
KPA1 130049Z 03007KT 24/19 A2996 RMK A01 T02410193  RH  075%=      5-min Rain = 0
KPA1 130050Z 03005KT 24/20 A2996 RMK A01 T02410195  RH  075%=      5-min Rain = 0
KPA1 130051Z 01005KT 24/20 A2997 RMK A01 T02400195  RH  076%=      5-min Rain = 0
KPA1 130052Z 00005KT 24/20 A2997 RMK A01 T02400195  RH  076%=      5-min Rain = 0
KPA1 130053Z 35004KT 24/19 A2998 RMK A01 T02410192  RH  074%=      5-min Rain = 0
KPA1 130054Z 35003KT 24/19 A2998 RMK A01 T02430192  RH  073%=      5-min Rain = 0
KPA1 130055Z 36004KT 24/20 A2998 RMK A01 T02440195  RH  074%=      5-min Rain = 0
KPA1 130056Z 00007KT 24/20 A2998 RMK A01 T02440195  RH  074%=      5-min Rain = 0
KPA1 130057Z 02006KT 24/20 A2998 RMK A01 T02440198  RH  075%=      5-min Rain = 0
KPA1 130058Z 02007KT 24/20 A2998 RMK A01 T02440198  RH  076%=      5-min Rain = 0
KPA1 130059Z 03006KT 24/20 A2998 RMK A01 T02430197  RH  075%=      5-min Rain = 0
KPA1 130100Z 04007KT 24/20 A2998 RMK A01 T02420195  RH  075%=      5-min Rain = 0
KPA1 130101Z 05007KT 24/19 A2998 RMK A01 T02430193  RH  074%=      5-min Rain = 0
KPA1 130102Z 06005KT 24/20 A2999 RMK A01 T02430195  RH  074%=      5-min Rain = 0
KPA1 130103Z 07005KT 24/20 A2999 RMK A01 T02430197  RH  075%=      5-min Rain = 0
KPA1 130104Z 08006KT 24/20 A2999 RMK A01 T02420197  RH  076%=      5-min Rain = 0
KPA1 130105Z 08006KT 24/20 A2999 RMK A01 T02410198  RH  077%=      5-min Rain = 0
KPA1 130106Z 09007KT 24/20 A2999 RMK A01 T02410198  RH  077%=      5-min Rain = 0
KPA1 130107Z 09008KT 24/20 A2999 RMK A01 T02390198  RH  078%=      5-min Rain = 0
KPA1 130108Z 08008KT 24/20 A2999 RMK A01 T02390198  RH  078%=      5-min Rain = 0
KPA1 130109Z 08010KT 24/20 A2998 RMK A01 T02380199  RH  079%=      5-min Rain = 0
KPA1 130110Z 07010KT 24/20 A2998 RMK A01 T02370199  RH  079%=      5-min Rain = 0
KPA1 130111Z 07011KT 24/20 A2998 RMK A01 T02360198  RH  079%=      5-min Rain = 0
KPA1 130112Z 07012KT 24/20 A2998 RMK A01 T02360196  RH  078%=      5-min Rain = 0
KPA1 130113Z 07012KT 24/20 A2998 RMK A01 T02370195  RH  077%=      5-min Rain = 0
KPA1 130114Z 08010KT 24/20 A2998 RMK A01 T02380195  RH  077%=      5-min Rain = 0
KPA1 130115Z 09010KT 24/20 A2997 RMK A01 T02380196  RH  077%=      5-min Rain = 0
KPA1 130116Z 08011KT 24/20 A2997 RMK A01 T02380197  RH  078%=      5-min Rain = 0
KPA1 130117Z 07011KT 24/20 A2997 RMK A01 T02370196  RH  078%=      5-min Rain = 0
KPA1 130118Z 07011KT 24/20 A2997 RMK A01 T02360197  RH  079%=      5-min Rain = 0
KPA1 130119Z 07013KT 24/19 A2997 RMK A01 T02350193  RH  077%=      5-min Rain = 0
KPA1 130120Z 07013KT 24/19 A2997 RMK A01 T02360191  RH  076%=      5-min Rain = 0
KPA1 130121Z 06011KT 24/20 A2997 RMK A01 T02370195  RH  077%=      5-min Rain = 0
KPA1 130122Z 06011KT 23/19 A2997 RMK A01 T02340194  RH  078%=      5-min Rain = 0
KPA1 130123Z 07011KT 23/19 A2997 RMK A01 T02340193  RH  078%=      5-min Rain = 0
KPA1 130124Z 06012KT 23/19 A2997 RMK A01 T02340193  RH  078%=      5-min Rain = 0
KPA1 130125Z 07012KT 23/19 A2997 RMK A01 T02340192  RH  077%=      5-min Rain = 0
KPA1 130126Z 07012KT 24/19 A2997 RMK A01 T02350193  RH  077%=      5-min Rain = 0
KPA1 130127Z 07012KT 23/19 A2997 RMK A01 T02340192  RH  077%=      5-min Rain = 0
KPA1 130128Z 07012KT 24/19 A2997 RMK A01 T02350191  RH  076%=      5-min Rain = 0
KPA1 130129Z 08012KT 24/19 A2997 RMK A01 T02360190  RH  076%=      5-min Rain = 0
KPA1 130130Z 07013KT 24/19 A2997 RMK A01 T02360189  RH  075%=      5-min Rain = 0
KPA1 130131Z 07013KT 24/19 A2997 RMK A01 T02370190  RH  075%=      5-min Rain = 0
KPA1 130132Z 07012KT 24/19 A2997 RMK A01 T02370189  RH  075%=      5-min Rain = 0
KPA1 130133Z 07011KT 24/19 A2997 RMK A01 T02380190  RH  075%=      5-min Rain = 0
KPA1 130134Z 07009KT 24/19 A2997 RMK A01 T02370191  RH  075%=      5-min Rain = 0
KPA1 130135Z 07009KT 24/19 A2997 RMK A01 T02370191  RH  076%=      5-min Rain = 0
KPA1 130136Z 07011G16KT 24/19 A2997 RMK A01 T02360191  RH  076%=      5-min Rain = 0
KPA1 130137Z 07013KT 24/19 A2997 RMK A01 T02360189  RH  075%=      5-min Rain = 0
KPA1 130138Z 07012KT 24/19 A2997 RMK A01 T02370187  RH  073%=      5-min Rain = 0
KPA1 130139Z 07011KT 24/19 A2997 RMK A01 T02380187  RH  073%=      5-min Rain = 0
KPA1 130140Z 07010KT 24/19 A2997 RMK A01 T02380188  RH  073%=      5-min Rain = 0
KPA1 130141Z 07010KT 24/19 A2997 RMK A01 T02390188  RH  073%=      5-min Rain = 0
KPA1 130142Z 07011KT 24/19 A2997 RMK A01 T02380188  RH  073%=      5-min Rain = 0
KPA1 130143Z 07011KT 24/19 A2997 RMK A01 T02390187  RH  073%=      5-min Rain = 0
KPA1 130144Z 07012KT 24/19 A2997 RMK A01 T02380187  RH  073%=      5-min Rain = 0
KPA1 130145Z 07011KT 24/19 A2997 RMK A01 T02390186  RH  072%=      5-min Rain = 0
KPA1 130146Z 06012KT 24/19 A2997 RMK A01 T02390186  RH  072%=      5-min Rain = 0
KPA1 130147Z 07012KT 24/19 A2997 RMK A01 T02390185  RH  072%=      5-min Rain = 0
KPA1 130148Z 07011KT 24/19 A2998 RMK A01 T02400186  RH  072%=      5-min Rain = 0
KPA1 130149Z 07010KT 24/19 A2998 RMK A01 T02400185  RH  071%=      5-min Rain = 0
KPA1 130150Z 07011KT 24/19 A2998 RMK A01 T02410185  RH  071%=      5-min Rain = 0
KPA1 130151Z 07011KT 24/19 A2997 RMK A01 T02410186  RH  071%=      5-min Rain = 0
KPA1 130152Z 07013KT 24/19 A2997 RMK A01 T02400187  RH  072%=      5-min Rain = 0
KPA1 130153Z 07014KT 24/19 A2997 RMK A01 T02390187  RH  073%=      5-min Rain = 0
KPA1 130154Z 07016KT 24/19 A2997 RMK A01 T02380188  RH  073%=      5-min Rain = 0
KPA1 130155Z 07015KT 24/19 A2997 RMK A01 T02370188  RH  074%=      5-min Rain = 0
KPA1 130156Z 08013KT 24/19 A2997 RMK A01 T02350188  RH  075%=      5-min Rain = 0
KPA1 130157Z 08014KT 23/19 A2997 RMK A01 T02340189  RH  076%=      5-min Rain = 0
KPA1 130158Z 08014KT 23/19 A2997 RMK A01 T02340188  RH  076%=      5-min Rain = 0
KPA1 130159Z 08014KT 23/19 A2997 RMK A01 T02340189  RH  076%=      5-min Rain = 0
KPA1 130200Z 08014KT 23/19 A2997 RMK A01 T02330189  RH  076%=      5-min Rain = 0
KPA1 130201Z 08014KT 23/19 A2997 RMK A01 T02330188  RH  076%=      5-min Rain = 0
KPA1 130202Z 08013KT 23/19 A2997 RMK A01 T02340189  RH  076%=      5-min Rain = 0
KPA1 130203Z 08013KT 23/19 A2997 RMK A01 T02330188  RH  076%=      5-min Rain = 0
KPA1 130204Z 08015KT 23/19 A2997 RMK A01 T02340187  RH  075%=      5-min Rain = 0
KPA1 130205Z 08013KT 24/19 A2997 RMK A01 T02350186  RH  074%=      5-min Rain = 0
KPA1 130206Z 08014KT 24/19 A2998 RMK A01 T02360186  RH  074%=      5-min Rain = 0
KPA1 130207Z 08014KT 24/19 A2998 RMK A01 T02360186  RH  073%=      5-min Rain = 0
KPA1 130208Z 08012KT 24/19 A2998 RMK A01 T02370186  RH  073%=      5-min Rain = 0
KPA1 130209Z 07012KT 24/19 A2998 RMK A01 T02370188  RH  074%=      5-min Rain = 0
KPA1 130210Z 07012KT 24/19 A2998 RMK A01 T02360188  RH  075%=      5-min Rain = 0
KPA1 130211Z 07011KT 24/19 A2998 RMK A01 T02350188  RH  075%=      5-min Rain = 0
KPA1 130212Z 07011KT 23/19 A2998 RMK A01 T02340188  RH  075%=      5-min Rain = 0
KPA1 130213Z 07011KT 24/19 A2998 RMK A01 T02350188  RH  075%=      5-min Rain = 0
KPA1 130214Z 07010KT 23/19 A2998 RMK A01 T02340188  RH  075%=      5-min Rain = 0
KPA1 130215Z 07008KT 23/19 A2998 RMK A01 T02340189  RH  076%=      5-min Rain = 0
KPA1 130216Z 08008KT 23/19 A2998 RMK A01 T02330189  RH  076%=      5-min Rain = 0
KPA1 130217Z 08009KT 23/19 A2999 RMK A01 T02320189  RH  077%=      5-min Rain = 0
KPA1 130218Z 07009KT 23/19 A2999 RMK A01 T02320189  RH  076%=      5-min Rain = 0
KPA1 130219Z 05008KT 23/19 A30 RMK A01 T02320187  RH  076%=      5-min Rain = 0
KPA1 130220Z 35010KT 23/19 A3001 RMK A01 T02330187  RH  075%=      5-min Rain = 0
KPA1 130221Z 33014KT 23/19 A3002 RMK A01 T02340190  RH  076%=      5-min Rain = 0
KPA1 130222Z 33014KT 24/19 A3002 RMK A01 T02350188  RH  075%=      5-min Rain = 0.01
KPA1 130223Z 33012KT 24/19 A3002 RMK A01 T02360189  RH  075%=      5-min Rain = 0
KPA1 130224Z 33013KT 24/19 A3002 RMK A01 T02350189  RH  075%=      5-min Rain = 0
KPA1 130225Z 33009KT 24/19 A3002 RMK A01 T02350189  RH  076%=      5-min Rain = 0
KPA1 130226Z 33012KT 23/19 A3003 RMK A01 T02340188  RH  076%=      5-min Rain = 0
KPA1 130227Z 34011KT 23/19 A3003 RMK A01 T02340190  RH  076%=      5-min Rain = 0
KPA1 130228Z 34010KT 23/19 A3003 RMK A01 T02330190  RH  076%=      5-min Rain = 0
KPA1 130229Z 35008KT 23/19 A3003 RMK A01 T02330188  RH  076%=      5-min Rain = 0
KPA1 130230Z 04013G21KT 23/19 A3003 RMK A01 T02340187  RH  075%=      5-min Rain = 0
KPA1 130231Z 04011KT 24/18 A3002 RMK A01 T02400176  RH  067%=      5-min Rain = 0
KPA1 130232Z 05017KT 25/18 A3002 RMK A01 T02470178  RH  066%=      5-min Rain = 0
KPA1 130233Z 04014KT 25/18 A3002 RMK A01 T02490177  RH  064%=      5-min Rain = 0
KPA1 130234Z 05013KT 25/18 A3003 RMK A01 T02500179  RH  065%=      5-min Rain = 0
KPA1 130235Z 04014KT 25/18 A3003 RMK A01 T02480179  RH  065%=      5-min Rain = 0
KPA1 130236Z 03009KT 25/18 A3004 RMK A01 T02480179  RH  065%=      5-min Rain = 0
KPA1 130237Z 02011KT 25/18 A3004 RMK A01 T02470181  RH  067%=      5-min Rain = 0
KPA1 130238Z 36010KT 25/18 A3004 RMK A01 T02460182  RH  067%=      5-min Rain = 0
KPA1 130239Z 35009KT 25/18 A3005 RMK A01 T02450182  RH  068%=      5-min Rain = 0
KPA1 130240Z 35009KT 25/18 A3005 RMK A01 T02460183  RH  068%=      5-min Rain = 0
KPA1 130241Z 36008KT 24/19 A3005 RMK A01 T02440185  RH  069%=      5-min Rain = 0
KPA1 130242Z 36006KT 24/18 A3006 RMK A01 T02430183  RH  069%=      5-min Rain = 0
KPA1 130243Z 36004KT 24/19 A3006 RMK A01 T02430185  RH  070%=      5-min Rain = 0
KPA1 130244Z 36004KT 24/18 A3006 RMK A01 T02420183  RH  069%=      5-min Rain = 0
KPA1 130245Z 00002KT 24/18 A3006 RMK A01 T02420182  RH  069%=      5-min Rain = 0
KPA1 130246Z 05000KT 24/18 A3006 RMK A01 T02430183  RH  069%=      5-min Rain = 0
KPA1 130247Z 08004KT 24/19 A3006 RMK A01 T02420185  RH  070%=      5-min Rain = 0
KPA1 130248Z 06004KT 24/19 A3006 RMK A01 T02420186  RH  071%=      5-min Rain = 0
KPA1 130249Z 05006KT 24/19 A3006 RMK A01 T02400185  RH  071%=      5-min Rain = 0
KPA1 130250Z 05006KT 24/19 A3005 RMK A01 T02400185  RH  071%=      5-min Rain = 0
KPA1 130251Z 06008KT 24/19 A3005 RMK A01 T02390186  RH  072%=      5-min Rain = 0
KPA1 130252Z 06010KT 24/19 A3005 RMK A01 T02380186  RH  073%=      5-min Rain = 0
KPA1 130253Z 05010KT 24/19 A3004 RMK A01 T02360187  RH  074%=      5-min Rain = 0
KPA1 130254Z 04010KT 24/19 A3004 RMK A01 T02350189  RH  075%=      5-min Rain = 0
KPA1 130255Z 03011KT 23/19 A3004 RMK A01 T02320190  RH  077%=      5-min Rain = 0
KPA1 130256Z 03012KT 23/19 A3004 RMK A01 T02310189  RH  077%=      5-min Rain = 0
KPA1 130257Z 03011KT 23/19 A3004 RMK A01 T02310188  RH  077%=      5-min Rain = 0
KPA1 130258Z 02012KT 23/19 A3004 RMK A01 T02310189  RH  077%=      5-min Rain = 0
KPA1 130259Z 02012KT 23/19 A3004 RMK A01 T02310188  RH  076%=      5-min Rain = 0
KPA1 130300Z 03012KT 23/19 A3004 RMK A01 T02330188  RH  076%=      5-min Rain = 0
KPA1 130301Z 03011KT 23/19 A3004 RMK A01 T02330187  RH  075%=      5-min Rain = 0
KPA1 130302Z 03010KT 23/19 A3004 RMK A01 T02330189  RH  076%=      5-min Rain = 0
KPA1 130303Z 03011KT 23/19 A3004 RMK A01 T02310189  RH  077%=      5-min Rain = 0
KPA1 130304Z 04010KT 23/19 A3004 RMK A01 T02310188  RH  077%=      5-min Rain = 0
KPA1 130305Z 03012KT 23/19 A3004 RMK A01 T02300187  RH  077%=      5-min Rain = 0
KPA1 130306Z 03011KT 23/19 A3004 RMK A01 T02300186  RH  076%=      5-min Rain = 0
KPA1 130307Z 03012KT 23/19 A3004 RMK A01 T02300186  RH  076%=      5-min Rain = 0
KPA1 130308Z 04013KT 23/18 A3004 RMK A01 T02310184  RH  075%=      5-min Rain = 0
KPA1 130309Z 04012KT 23/18 A3005 RMK A01 T02320184  RH  075%=      5-min Rain = 0
KPA1 130310Z 03012KT 23/19 A3005 RMK A01 T02320185  RH  075%=      5-min Rain = 0
KPA1 130311Z 03010KT 23/19 A3005 RMK A01 T02310185  RH  075%=      5-min Rain = 0
KPA1 130312Z 02011KT 23/19 A3006 RMK A01 T02300186  RH  076%=      5-min Rain = 0
KPA1 130313Z 01009KT 23/19 A3006 RMK A01 T02300187  RH  077%=      5-min Rain = 0
KPA1 130314Z 00011KT 23/19 A3006 RMK A01 T02300188  RH  077%=      5-min Rain = 0
KPA1 130315Z 36011KT 23/19 A3006 RMK A01 T02290189  RH  078%=      5-min Rain = 0
KPA1 130316Z 35012KT 23/19 A3006 RMK A01 T02290188  RH  078%=      5-min Rain = 0
KPA1 130317Z 36010KT 23/19 A3006 RMK A01 T02280189  RH  078%=      5-min Rain = 0
KPA1 130318Z 36010KT 23/19 A3007 RMK A01 T02280189  RH  079%=      5-min Rain = 0
KPA1 130319Z 36009KT 23/19 A3007 RMK A01 T02280189  RH  079%=      5-min Rain = 0
KPA1 130320Z 36009KT 23/19 A3007 RMK A01 T02270190  RH  079%=      5-min Rain = 0
KPA1 130321Z 36008KT 23/19 A3007 RMK A01 T02270190  RH  080%=      5-min Rain = 0
KPA1 130322Z 00008KT 23/19 A3008 RMK A01 T02260190  RH  080%=      5-min Rain = 0
KPA1 130323Z 00008KT 23/19 A3008 RMK A01 T02260190  RH  080%=      5-min Rain = 0
KPA1 130324Z 01008KT 23/19 A3008 RMK A01 T02250191  RH  081%=      5-min Rain = 0
KPA1 130325Z 00009KT 22/19 A3008 RMK A01 T02240191  RH  082%=      5-min Rain = 0.01
KPA1 130326Z 00008KT 22/19 A3009 RMK A01 T02230190  RH  081%=      5-min Rain = 0
KPA1 130327Z 00006KT 22/19 A3009 RMK A01 T02230189  RH  081%=      5-min Rain = 0
KPA1 130328Z 00005KT 22/19 A3009 RMK A01 T02240192  RH  082%=      5-min Rain = 0
KPA1 130329Z 00006KT 22/19 A3009 RMK A01 T02230192  RH  083%=      5-min Rain = 0
KPA1 130330Z 36007KT 22/19 A3009 RMK A01 T02220191  RH  083%=      5-min Rain = 0.01
KPA1 130331Z 36007KT 22/19 A301 RMK A01 T02220191  RH  083%=      5-min Rain = 0
KPA1 130332Z 36008KT 22/19 A301 RMK A01 T02220192  RH  083%=      5-min Rain = 0
KPA1 130333Z 36008KT 22/19 A301 RMK A01 T02220192  RH  083%=      5-min Rain = 0
KPA1 130334Z 36010KT 22/19 A301 RMK A01 T02220192  RH  083%=      5-min Rain = 0
KPA1 130335Z 36009KT 22/19 A301 RMK A01 T02210193  RH  084%=      5-min Rain = 0
KPA1 130336Z 36008KT 22/19 A301 RMK A01 T02210194  RH  084%=      5-min Rain = 0
KPA1 130337Z 36009KT 22/19 A3009 RMK A01 T02200194  RH  085%=      5-min Rain = 0
KPA1 130338Z 36009KT 22/19 A3009 RMK A01 T02190194  RH  085%=      5-min Rain = 0
KPA1 130339Z 36009KT 22/19 A3009 RMK A01 T02190194  RH  086%=      5-min Rain = 0
KPA1 130340Z 00009KT 22/19 A3009 RMK A01 T02190194  RH  086%=      5-min Rain = 0
KPA1 130341Z 00010KT 22/19 A3009 RMK A01 T02180194  RH  086%=      5-min Rain = 0
KPA1 130342Z 00010KT 22/20 A3009 RMK A01 T02180195  RH  086%=      5-min Rain = 0
KPA1 130343Z 01009KT 22/20 A3009 RMK A01 T02180195  RH  087%=      5-min Rain = 0.01
KPA1 130344Z 01009KT 22/20 A3009 RMK A01 T02170195  RH  087%=      5-min Rain = 0
KPA1 130345Z 01007KT 22/20 A3009 RMK A01 T02170196  RH  088%=      5-min Rain = 0
KPA1 130346Z 01009KT 22/20 A3009 RMK A01 T02160197  RH  089%=      5-min Rain = 0
KPA1 130347Z 02010KT 22/20 A3009 RMK A01 T02160195  RH  088%=      5-min Rain = 0
KPA1 130348Z 03009KT 22/19 A3009 RMK A01 T02160194  RH  088%=      5-min Rain = 0
KPA1 130349Z 03009KT 22/20 A3009 RMK A01 T02160195  RH  088%=      5-min Rain = 0
KPA1 130350Z 03009KT 22/20 A3009 RMK A01 T02160195  RH  088%=      5-min Rain = 0.01
KPA1 130351Z 04009KT 22/20 A3009 RMK A01 T02150197  RH  089%=      5-min Rain = 0.01
KPA1 130352Z 04010KT 21/20 A3009 RMK A01 T02140195  RH  089%=      5-min Rain = 0
KPA1 130353Z 03010KT 21/20 A3009 RMK A01 T02130195  RH  090%=      5-min Rain = 0.01
KPA1 130354Z 04010KT 21/20 A3009 RMK A01 T02120195  RH  090%=      5-min Rain = 0.01
KPA1 130355Z 03011KT 21/19 A3009 RMK A01 T02120194  RH  090%=      5-min Rain = 0.01
KPA1 130356Z 03010KT 21/20 A3009 RMK A01 T02110195  RH  090%=      5-min Rain = 0.01
KPA1 130357Z 02010KT 21/20 A3009 RMK A01 T02110195  RH  090%=      5-min Rain = 0
KPA1 130358Z 02011KT 21/20 A3009 RMK A01 T02110195  RH  091%=      5-min Rain = 0
KPA1 130359Z 02010KT 21/20 A3009 RMK A01 T02110195  RH  090%=      5-min Rain = 0
KPA1 130400Z 02010KT 21/19 A3009 RMK A01 T02110194  RH  090%=      5-min Rain = 0.01
KPA1 130401Z 02010KT 21/20 A3009 RMK A01 T02110195  RH  090%=      5-min Rain = 0
KPA1 130402Z 03010KT 21/19 A3009 RMK A01 T02110194  RH  090%=      5-min Rain = 0.01
KPA1 130403Z 02011KT 21/19 A3009 RMK A01 T02110194  RH  090%=      5-min Rain = 0
KPA1 130404Z 02010KT 21/19 A3009 RMK A01 T02100193  RH  090%=      5-min Rain = 0
KPA1 130405Z 03008KT 21/19 A3009 RMK A01 T02110193  RH  090%=      5-min Rain = 0
KPA1 130406Z 04009KT 21/19 A3009 RMK A01 T02110194  RH  090%=      5-min Rain = 0
KPA1 130407Z 05009KT 21/19 A3009 RMK A01 T02110194  RH  090%=      5-min Rain = 0
KPA1 130408Z 05012G17KT 21/19 A3009 RMK A01 T02100193  RH  090%=      5-min Rain = 0
KPA1 130409Z 05013KT 21/19 A3009 RMK A01 T02110192  RH  089%=      5-min Rain = 0
KPA1 130410Z 06012KT 21/19 A3009 RMK A01 T02100192  RH  089%=      5-min Rain = 0
KPA1 130411Z 06014KT 21/19 A3009 RMK A01 T02110191  RH  088%=      5-min Rain = 0
KPA1 130412Z 06014KT 21/19 A3009 RMK A01 T02120191  RH  088%=      5-min Rain = 0
KPA1 130413Z 06014KT 21/19 A3009 RMK A01 T02120191  RH  088%=      5-min Rain = 0
KPA1 130414Z 06016KT 21/19 A3008 RMK A01 T02120191  RH  088%=      5-min Rain = 0
KPA1 130415Z 06017KT 21/19 A3008 RMK A01 T02120192  RH  088%=      5-min Rain = 0
KPA1 130416Z 06019KT 21/19 A3007 RMK A01 T02120192  RH  089%=      5-min Rain = 0.01
KPA1 130417Z 06018KT 21/19 A3007 RMK A01 T02120192  RH  088%=      5-min Rain = 0.01
KPA1 130418Z 05018KT 21/19 A3006 RMK A01 T02110192  RH  089%=      5-min Rain = 0.01
KPA1 130419Z 06018KT 21/19 A3006 RMK A01 T02100192  RH  090%=      5-min Rain = 0.01
KPA1 130420Z 06017KT 21/19 A3005 RMK A01 T02090193  RH  090%=      5-min Rain = 0
KPA1 130421Z 06019KT 21/19 A3005 RMK A01 T02090194  RH  091%=      5-min Rain = 0
KPA1 130422Z 07019KT 21/19 A3005 RMK A01 T02080194  RH  091%=      5-min Rain = 0
KPA1 130423Z 07019KT 21/19 A3004 RMK A01 T02080194  RH  092%=      5-min Rain = 0
KPA1 130424Z 08015KT 21/20 A3004 RMK A01 T02080195  RH  092%=      5-min Rain = 0
KPA1 130425Z 09014KT 21/20 A3004 RMK A01 T02080195  RH  093%=      5-min Rain = 0
KPA1 130426Z 09014KT 21/20 A3004 RMK A01 T02070196  RH  093%=      5-min Rain = 0
KPA1 130427Z 09017KT 21/20 A3004 RMK A01 T02070196  RH  093%=      5-min Rain = 0
KPA1 130428Z 09016G21KT 21/20 A3004 RMK A01 T02070196  RH  094%=      5-min Rain = 0
KPA1 130429Z 08017KT 21/20 A3004 RMK A01 T02070196  RH  094%=      5-min Rain = 0
KPA1 130430Z 09016KT 21/20 A3004 RMK A01 T02070196  RH  093%=      5-min Rain = 0
KPA1 130431Z 08017G22KT 21/20 A3004 RMK A01 T02070196  RH  093%=      5-min Rain = 0
KPA1 130432Z 09018KT 21/20 A3004 RMK A01 T02070195  RH  093%=      5-min Rain = 0
KPA1 130433Z 08020G25KT 21/19 A3004 RMK A01 T02070194  RH  092%=      5-min Rain = 0
KPA1 130434Z 08020KT 21/19 A3003 RMK A01 T02070194  RH  092%=      5-min Rain = 0
KPA1 130435Z 08018KT 21/19 A3003 RMK A01 T02070194  RH  092%=      5-min Rain = 0
KPA1 130436Z 09018KT 21/19 A3003 RMK A01 T02070193  RH  092%=      5-min Rain = 0
KPA1 130437Z 08019KT 21/19 A3003 RMK A01 T02070193  RH  091%=      5-min Rain = 0
KPA1 130438Z 09016KT 21/19 A3003 RMK A01 T02070192  RH  091%=      5-min Rain = 0
KPA1 130439Z 09015KT 21/19 A3003 RMK A01 T02070191  RH  091%=      5-min Rain = 0
KPA1 130440Z 09014KT 21/19 A3003 RMK A01 T02070191  RH  091%=      5-min Rain = 0
KPA1 130441Z 09016KT 21/19 A3003 RMK A01 T02070190  RH  090%=      5-min Rain = 0
KPA1 130442Z 09014G19KT 21/19 A3003 RMK A01 T02080190  RH  090%=      5-min Rain = 0
KPA1 130443Z 09015KT 21/19 A3003 RMK A01 T02080190  RH  089%=      5-min Rain = 0
KPA1 130444Z 09013KT 21/19 A3003 RMK A01 T02090190  RH  089%=      5-min Rain = 0
KPA1 130445Z 09014G21KT 21/19 A3003 RMK A01 T02080191  RH  090%=      5-min Rain = 0.01
KPA1 130446Z 08013KT 21/19 A3003 RMK A01 T02080191  RH  090%=      5-min Rain = 0
KPA1 130447Z 08016KT 21/19 A3003 RMK A01 T02080190  RH  089%=      5-min Rain = 0
KPA1 130448Z 08013KT 21/19 A3003 RMK A01 T02090189  RH  088%=      5-min Rain = 0
KPA1 130449Z 08016KT 21/19 A3003 RMK A01 T02090190  RH  089%=      5-min Rain = 0
KPA1 130450Z 08016KT 21/19 A3003 RMK A01 T02090189  RH  088%=      5-min Rain = 0
KPA1 130451Z 09014KT 21/19 A3003 RMK A01 T02090189  RH  088%=      5-min Rain = 0
KPA1 130452Z 08015KT 21/19 A3003 RMK A01 T02090189  RH  088%=      5-min Rain = 0
KPA1 130453Z 08015KT 21/19 A3003 RMK A01 T02090189  RH  088%=      5-min Rain = 0
KPA1 130454Z 08014KT 21/19 A3003 RMK A01 T02090189  RH  089%=      5-min Rain = 0
KPA1 130455Z 08015G20KT 21/19 A3003 RMK A01 T02080189  RH  089%=      5-min Rain = 0
KPA1 130456Z 08015KT 21/19 A3003 RMK A01 T02080189  RH  089%=      5-min Rain = 0
KPA1 130457Z 09015KT 21/19 A3003 RMK A01 T02080189  RH  089%=      5-min Rain = 0
KPA1 130458Z 09016KT 21/19 A3003 RMK A01 T02080189  RH  089%=      5-min Rain = 0
KPA1 130459Z 09016KT 21/19 A3003 RMK A01 T02080189  RH  089%=      5-min Rain = 0

Page generated in 0.1193 seconds.